Wetterdaten: Samstag, 31.10.2020
Datum Zeit Temp. Aussen Temp. o. S. Temp +5cm Feuchte Auss Luftdruck Regen Sonnenschein Regendauer Solar Windben Empfang
31.10.2020 00:00 14,2 C 13,3 C 12,8 C 91 % 1023,5 hPa 0,0 l/m 0 min 0 min 0 W/m 6,4 km/h (2 Bft) 97,87 %
31.10.2020 00:02 14,2 C 13,3 C 12,8 C 91 % 1023,5 hPa 0,0 l/m 0 min 0 min 0 W/m 3,2 km/h (1 Bft) 97,67 %
31.10.2020 00:04 14,2 C 13,3 C 12,8 C 91 % 1023,5 hPa 0,0 l/m 0 min 0 min 0 W/m 6,4 km/h (2 Bft) 100,00 %
31.10.2020 00:08 14,2 C 13,3 C 12,8 C 91 % 1023,5 hPa 0,0 l/m 0 min 0 min 0 W/m 12,9 km/h (3 Bft) 96,84 %
31.10.2020 00:10 14,2 C 13,3 C 12,8 C 91 % 1023,5 hPa 0,0 l/m 0 min 0 min 0 W/m 6,4 km/h (2 Bft) 97,83 %
31.10.2020 00:12 14,2 C 13,3 C 12,8 C 91 % 1023,6 hPa 0,0 l/m 0 min 0 min 0 W/m 6,4 km/h (2 Bft) 97,87 %
31.10.2020 00:14 14,2 C 13,3 C 12,8 C 91 % 1023,6 hPa 0,0 l/m 0 min 0 min 0 W/m 12,9 km/h (3 Bft) 97,87 %
31.10.2020 00:16 14,2 C 13,3 C 12,8 C 91 % 1023,5 hPa 0,0 l/m 0 min 0 min 0 W/m 6,4 km/h (2 Bft) 97,87 %
31.10.2020 00:18 14,2 C 13,3 C 12,8 C 91 % 1023,6 hPa 0,0 l/m 0 min 0 min 0 W/m 12,9 km/h (3 Bft) 97,87 %
31.10.2020 00:20 14,2 C 13,3 C 12,8 C 91 % 1023,6 hPa 0,0 l/m 0 min 0 min 0 W/m 3,2 km/h (1 Bft) 97,87 %
31.10.2020 00:22 14,2 C 13,3 C 12,8 C 91 % 1023,5 hPa 0,0 l/m 0 min 0 min 0 W/m 3,2 km/h (1 Bft) 97,83 %
31.10.2020 00:24 14,2 C 13,3 C 12,8 C 91 % 1023,6 hPa 0,0 l/m 0 min 0 min 0 W/m 9,7 km/h (2 Bft) 97,87 %
31.10.2020 00:26 14,2 C 13,3 C 12,8 C 91 % 1023,6 hPa 0,0 l/m 0 min 0 min 0 W/m 6,4 km/h (2 Bft) 95,74 %
31.10.2020 00:28 14,2 C 13,3 C 12,8 C 90 % 1023,6 hPa 0,0 l/m 0 min 0 min 0 W/m 0,0 km/h (0 Bft) 97,87 %
31.10.2020 00:30 14,1 C 13,3 C 12,8 C 90 % 1023,6 hPa 0,0 l/m 0 min 0 min 0 W/m 0,0 km/h (0 Bft) 93,62 %
31.10.2020 00:32 14,2 C 13,3 C 12,8 C 90 % 1023,6 hPa 0,0 l/m 0 min 0 min 0 W/m 0,0 km/h (0 Bft) 93,62 %
31.10.2020 00:34 14,1 C 13,3 C 12,2 C 90 % 1023,6 hPa 0,0 l/m 0 min 0 min 0 W/m 3,2 km/h (1 Bft) 97,83 %
31.10.2020 00:36 14,1 C 13,3 C 12,2 C 90 % 1023,6 hPa 0,0 l/m 0 min 0 min 0 W/m 3,2 km/h (1 Bft) 95,74 %
31.10.2020 00:38 14,1 C 13,3 C 12,8 C 90 % 1023,6 hPa 0,0 l/m 0 min 0 min 0 W/m 3,2 km/h (1 Bft) 97,87 %
31.10.2020 00:40 14,2 C 13,3 C 12,2 C 90 % 1023,6 hPa 0,0 l/m 0 min 0 min 0 W/m 3,2 km/h (1 Bft) 95,74 %
31.10.2020 00:42 14,1 C 13,3 C 12,2 C 90 % 1023,6 hPa 0,0 l/m 0 min 0 min 0 W/m 12,9 km/h (3 Bft) 97,87 %
31.10.2020 00:44 14,1 C 13,3 C 12,8 C 90 % 1023,6 hPa 0,0 l/m 0 min 0 min 0 W/m 3,2 km/h (1 Bft) 100,00 %
31.10.2020 00:46 14,1 C 13,3 C 12,2 C 90 % 1023,6 hPa 0,0 l/m 0 min 0 min 0 W/m 3,2 km/h (1 Bft) 97,83 %
31.10.2020 00:48 14,1 C 13,3 C 12,2 C 90 % 1023,6 hPa 0,0 l/m 0 min 0 min 0 W/m 3,2 km/h (1 Bft) 100,00 %
31.10.2020 00:50 14,1 C 13,3 C 12,2 C 90 % 1023,6 hPa 0,0 l/m 0 min 0 min 0 W/m 3,2 km/h (1 Bft) 97,87 %
31.10.2020 00:52 14,1 C 13,3 C 12,2 C 90 % 1023,6 hPa 0,0 l/m 0 min 0 min 0 W/m 0,0 km/h (0 Bft) 97,87 %
31.10.2020 00:54 14,1 C 13,3 C 12,2 C 90 % 1023,6 hPa 0,0 l/m 0 min 0 min 0 W/m 3,2 km/h (1 Bft) 100,00 %
31.10.2020 00:56 14,1 C 13,3 C 12,2 C 90 % 1023,6 hPa 0,0 l/m 0 min 0 min 0 W/m 0,0 km/h (0 Bft) 100,00 %
31.10.2020 00:58 14,1 C 13,3 C 12,2 C 90 % 1023,6 hPa 0,0 l/m 0 min 0 min 0 W/m 0,0 km/h (0 Bft) 100,00 %
31.10.2020 01:00 14,1 C 13,3 C 12,2 C 90 % 1023,6 hPa 0,0 l/m 0 min 0 min 0 W/m 3,2 km/h (1 Bft) 95,83 %
31.10.2020 01:02 14,1 C 13,3 C 12,2 C 90 % 1023,6 hPa 0,0 l/m 0 min 0 min 0 W/m 0,0 km/h (0 Bft) 100,00 %
31.10.2020 01:04 14,1 C 13,3 C 12,2 C 90 % 1023,6 hPa 0,0 l/m 0 min 0 min 0 W/m 0,0 km/h (0 Bft) 100,00 %
31.10.2020 01:06 14,1 C 13,3 C 12,2 C 90 % 1023,6 hPa 0,0 l/m 0 min 0 min 0 W/m 3,2 km/h (1 Bft) 97,87 %
31.10.2020 01:08 14,1 C 13,3 C 12,2 C 90 % 1023,6 hPa 0,0 l/m 0 min 0 min 0 W/m 0,0 km/h (0 Bft) 97,37 %
31.10.2020 01:10 14,1 C 13,3 C 12,2 C 90 % 1023,6 hPa 0,0 l/m 0 min 0 min 0 W/m 3,2 km/h (1 Bft) 96,43 %
31.10.2020 01:12 14,0 C 13,3 C 12,2 C 90 % 1023,6 hPa 0,0 l/m 0 min 0 min 0 W/m 0,0 km/h (0 Bft) 97,87 %
31.10.2020 01:14 14,0 C 13,3 C 12,2 C 91 % 1023,6 hPa 0,0 l/m 0 min 0 min 0 W/m 3,2 km/h (1 Bft) 97,87 %
31.10.2020 01:16 14,0 C 13,3 C 12,2 C 91 % 1023,6 hPa 0,0 l/m 0 min 0 min 0 W/m 3,2 km/h (1 Bft) 95,74 %
31.10.2020 01:18 14,0 C 13,3 C 12,2 C 91 % 1023,6 hPa 0,0 l/m 0 min 0 min 0 W/m 12,9 km/h (3 Bft) 97,87 %
31.10.2020 01:20 14,0 C 13,3 C 12,2 C 91 % 1023,6 hPa 0,0 l/m 0 min 0 min 0 W/m 19,3 km/h (3 Bft) 97,83 %
31.10.2020 01:22 14,0 C 13,3 C 12,2 C 91 % 1023,6 hPa 0,0 l/m 0 min 0 min 0 W/m 0,0 km/h (0 Bft) 95,74 %
31.10.2020 01:24 14,0 C 13,3 C 12,2 C 91 % 1023,6 hPa 0,0 l/m 0 min 0 min 0 W/m 0,0 km/h (0 Bft) 97,87 %
31.10.2020 01:26 14,0 C 13,3 C 12,2 C 91 % 1023,6 hPa 0,0 l/m 0 min 0 min 0 W/m 3,2 km/h (1 Bft) 97,87 %
31.10.2020 01:28 14,0 C 13,3 C 12,2 C 91 % 1023,6 hPa 0,0 l/m 0 min 0 min 0 W/m 3,2 km/h (1 Bft) 93,62 %
31.10.2020 01:30 14,0 C 13,3 C 12,2 C 91 % 1023,5 hPa 0,0 l/m 0 min 0 min 0 W/m 0,0 km/h (0 Bft) 95,74 %
31.10.2020 01:32 14,0 C 13,3 C 12,2 C 91 % 1023,6 hPa 0,0 l/m 0 min 0 min 0 W/m 3,2 km/h (1 Bft) 95,74 %
31.10.2020 01:34 14,0 C 13,3 C 12,2 C 91 % 1023,5 hPa 0,0 l/m 0 min 0 min 0 W/m 3,2 km/h (1 Bft) 95,74 %
31.10.2020 01:36 14,0 C 13,3 C 12,2 C 91 % 1023,5 hPa 0,0 l/m 0 min 0 min 0 W/m 12,9 km/h (3 Bft) 95,74 %
31.10.2020 01:38 14,0 C 13,3 C 12,2 C 91 % 1023,5 hPa 0,0 l/m 0 min 0 min 0 W/m 6,4 km/h (2 Bft) 95,74 %
31.10.2020 01:40 14,0 C 13,3 C 12,2 C 91 % 1023,5 hPa 0,0 l/m 0 min 0 min 0 W/m 6,4 km/h (2 Bft) 95,74 %
31.10.2020 01:42 14,0 C 13,3 C 12,2 C 91 % 1023,4 hPa 0,0 l/m 0 min 0 min 0 W/m 3,2 km/h (1 Bft) 95,74 %
31.10.2020 01:44 14,0 C 13,3 C 12,2 C 91 % 1023,4 hPa 0,0 l/m 0 min 0 min 0 W/m 3,2 km/h (1 Bft) 95,12 %
31.10.2020 01:46 14,0 C 13,3 C 12,2 C 91 % 1023,5 hPa 0,0 l/m 0 min 0 min 0 W/m 0,0 km/h (0 Bft) 93,62 %
31.10.2020 01:48 14,0 C 13,3 C 12,2 C 91 % 1023,5 hPa 0,0 l/m 0 min 0 min 0 W/m 6,4 km/h (2 Bft) 95,74 %
31.10.2020 01:50 14,0 C 13,3 C 12,2 C 91 % 1023,5 hPa 0,0 l/m 0 min 0 min 0 W/m 6,4 km/h (2 Bft) 93,48 %
31.10.2020 01:52 14,0 C 13,3 C 12,2 C 91 % 1023,5 hPa 0,0 l/m 0 min 0 min 0 W/m 3,2 km/h (1 Bft) 95,74 %
31.10.2020 01:54 14,0 C 13,3 C 12,2 C 91 % 1023,5 hPa 0,0 l/m 0 min 0 min 0 W/m 6,4 km/h (2 Bft) 95,74 %
31.10.2020 01:56 14,0 C 13,3 C 12,2 C 91 % 1023,5 hPa 0,0 l/m 0 min 0 min 0 W/m 3,2 km/h (1 Bft) 95,74 %
31.10.2020 01:58 14,0 C 13,3 C 12,2 C 91 % 1023,5 hPa 0,0 l/m 0 min 0 min 0 W/m 6,4 km/h (2 Bft) 95,74 %
31.10.2020 02:00 14,0 C 13,3 C 12,2 C 91 % 1023,5 hPa 0,0 l/m 0 min 0 min 0 W/m 3,2 km/h (1 Bft) 97,87 %
31.10.2020 02:02 14,0 C 13,3 C 12,2 C 91 % 1023,5 hPa 0,0 l/m 0 min 0 min 0 W/m 0,0 km/h (0 Bft) 96,23 %
31.10.2020 02:04 14,0 C 13,3 C 12,2 C 91 % 1023,5 hPa 0,0 l/m 0 min 0 min 0 W/m 12,9 km/h (3 Bft) 97,67 %
31.10.2020 02:06 14,0 C 13,3 C 12,2 C 91 % 1023,5 hPa 0,0 l/m 0 min 0 min 0 W/m 6,4 km/h (2 Bft) 97,87 %
31.10.2020 02:08 14,0 C 13,3 C 12,2 C 91 % 1023,5 hPa 0,0 l/m 0 min 0 min 0 W/m 0,0 km/h (0 Bft) 97,87 %
31.10.2020 02:10 14,0 C 13,3 C 12,2 C 91 % 1023,5 hPa 0,0 l/m 0 min 0 min 0 W/m 6,4 km/h (2 Bft) 97,87 %
31.10.2020 02:12 14,0 C 13,3 C 12,2 C 91 % 1023,4 hPa 0,0 l/m 0 min 0 min 0 W/m 6,4 km/h (2 Bft) 97,83 %
31.10.2020 02:14 13,9 C 13,3 C 12,2 C 91 % 1023,4 hPa 0,0 l/m 0 min 0 min 0 W/m 3,2 km/h (1 Bft) 97,87 %
31.10.2020 02:16 13,9 C 13,3 C 12,2 C 91 % 1023,4 hPa 0,0 l/m 0 min 0 min 0 W/m 6,4 km/h (2 Bft) 95,74 %
31.10.2020 02:18 13,9 C 13,3 C 12,2 C 91 % 1023,4 hPa 0,0 l/m 0 min 0 min 0 W/m 12,9 km/h (3 Bft) 100,00 %
31.10.2020 02:20 13,9 C 13,3 C 12,2 C 91 % 1023,4 hPa 0,0 l/m 0 min 0 min 0 W/m 3,2 km/h (1 Bft) 100,00 %
31.10.2020 02:22 13,9 C 13,3 C 12,2 C 92 % 1023,4 hPa 0,0 l/m 0 min 0 min 0 W/m 3,2 km/h (1 Bft) 100,00 %
31.10.2020 02:24 13,9 C 13,3 C 12,2 C 92 % 1023,4 hPa 0,0 l/m 0 min 0 min 0 W/m 3,2 km/h (1 Bft) 95,74 %
31.10.2020 02:26 13,9 C 13,3 C 12,2 C 92 % 1023,4 hPa 0,0 l/m 0 min 0 min 0 W/m 3,2 km/h (1 Bft) 100,00 %
31.10.2020 02:28 13,9 C 13,3 C 12,2 C 92 % 1023,4 hPa 0,0 l/m 0 min 0 min 0 W/m 3,2 km/h (1 Bft) 80,85 %
31.10.2020 02:30 13,9 C 13,3 C 12,2 C 92 % 1023,4 hPa 0,0 l/m 0 min 0 min 0 W/m 0,0 km/h (0 Bft) 73,17 %
31.10.2020 02:32 13,9 C 13,3 C 12,2 C 92 % 1023,4 hPa 0,0 l/m 0 min 0 min 0 W/m 6,4 km/h (2 Bft) 100,00 %
31.10.2020 02:34 13,9 C 13,3 C 12,2 C 92 % 1023,4 hPa 0,0 l/m 0 min 0 min 0 W/m 12,9 km/h (3 Bft) 100,00 %
31.10.2020 02:36 13,9 C 13,3 C 12,2 C 92 % 1023,4 hPa 0,0 l/m 0 min 0 min 0 W/m 6,4 km/h (2 Bft) 97,87 %
31.10.2020 02:38 13,9 C 13,3 C 12,2 C 92 % 1023,4 hPa 0,0 l/m 0 min 0 min 0 W/m 3,2 km/h (1 Bft) 95,74 %
31.10.2020 02:40 13,9 C 13,3 C 12,2 C 92 % 1023,4 hPa 0,0 l/m 0 min 0 min 0 W/m 0,0 km/h (0 Bft) 100,00 %
31.10.2020 02:42 13,9 C 13,3 C 12,2 C 92 % 1023,3 hPa 0,0 l/m 0 min 0 min 0 W/m 3,2 km/h (1 Bft) 100,00 %
31.10.2020 02:44 13,9 C 13,3 C 12,2 C 91 % 1023,4 hPa 0,0 l/m 0 min 0 min 0 W/m 3,2 km/h (1 Bft) 100,00 %
31.10.2020 02:46 13,9 C 13,3 C 12,2 C 91 % 1023,4 hPa 0,0 l/m 0 min 0 min 0 W/m 3,2 km/h (1 Bft) 100,00 %
31.10.2020 02:48 13,9 C 13,3 C 12,2 C 92 % 1023,4 hPa 0,0 l/m 0 min 0 min 0 W/m 3,2 km/h (1 Bft) 100,00 %
31.10.2020 02:50 13,9 C 13,3 C 12,2 C 91 % 1023,3 hPa 0,0 l/m 0 min 0 min 0 W/m 0,0 km/h (0 Bft) 100,00 %
31.10.2020 02:52 13,9 C 13,3 C 12,2 C 91 % 1023,3 hPa 0,0 l/m 0 min 0 min 0 W/m 0,0 km/h (0 Bft) 97,83 %
31.10.2020 02:54 13,9 C 13,3 C 12,2 C 91 % 1023,3 hPa 0,0 l/m 0 min 0 min 0 W/m 0,0 km/h (0 Bft) 100,00 %
31.10.2020 02:56 13,9 C 13,3 C 12,2 C 91 % 1023,3 hPa 0,0 l/m 0 min 0 min 0 W/m 0,0 km/h (0 Bft) 100,00 %
31.10.2020 02:58 13,9 C 13,3 C 12,2 C 91 % 1023,3 hPa 0,0 l/m 0 min 0 min 0 W/m 3,2 km/h (1 Bft) 100,00 %
31.10.2020 03:00 13,9 C 13,3 C 12,2 C 91 % 1023,3 hPa 0,0 l/m 0 min 0 min 0 W/m 3,2 km/h (1 Bft) 100,00 %
31.10.2020 03:02 13,9 C 13,3 C 12,2 C 91 % 1023,3 hPa 0,0 l/m 0 min 0 min 0 W/m 3,2 km/h (1 Bft) 100,00 %
31.10.2020 03:04 13,9 C 13,3 C 12,2 C 92 % 1023,3 hPa 0,0 l/m 0 min 0 min 0 W/m 0,0 km/h (0 Bft) 100,00 %
31.10.2020 03:06 13,9 C 13,3 C 12,2 C 92 % 1023,3 hPa 0,0 l/m 0 min 0 min 0 W/m 0,0 km/h (0 Bft) 97,87 %
31.10.2020 03:08 13,9 C 13,3 C 12,2 C 92 % 1023,2 hPa 0,0 l/m 0 min 0 min 0 W/m 3,2 km/h (1 Bft) 97,87 %
31.10.2020 03:10 13,9 C 13,3 C 12,2 C 92 % 1023,2 hPa 0,0 l/m 0 min 0 min 0 W/m 3,2 km/h (1 Bft) 100,00 %
31.10.2020 03:12 13,9 C 12,8 C 12,2 C 92 % 1023,2 hPa 0,0 l/m 0 min 0 min 0 W/m 6,4 km/h (2 Bft) 100,00 %
31.10.2020 03:14 13,9 C 12,8 C 12,2 C 92 % 1023,2 hPa 0,0 l/m 0 min 0 min 0 W/m 3,2 km/h (1 Bft) 100,00 %
31.10.2020 03:16 13,9 C 13,3 C 12,2 C 92 % 1023,2 hPa 0,0 l/m 0 min 0 min 0 W/m 3,2 km/h (1 Bft) 97,92 %
31.10.2020 03:18 13,8 C 13,3 C 12,2 C 92 % 1023,1 hPa 0,0 l/m 0 min 0 min 0 W/m 0,0 km/h (0 Bft) 97,92 %
31.10.2020 03:20 13,8 C 12,8 C 12,2 C 92 % 1023,1 hPa 0,0 l/m 0 min 0 min 0 W/m 0,0 km/h (0 Bft) 97,87 %
31.10.2020 03:22 13,8 C 12,8 C 12,2 C 92 % 1023,1 hPa 0,0 l/m 0 min 0 min 0 W/m 0,0 km/h (0 Bft) 97,83 %
31.10.2020 03:24 13,8 C 12,8 C 12,2 C 92 % 1023,2 hPa 0,0 l/m 0 min 0 min 0 W/m 0,0 km/h (0 Bft) 97,92 %
31.10.2020 03:26 13,8 C 12,8 C 12,2 C 92 % 1023,2 hPa 0,0 l/m 0 min 0 min 0 W/m 0,0 km/h (0 Bft) 97,87 %
31.10.2020 03:28 13,8 C 12,8 C 12,2 C 92 % 1023,2 hPa 0,0 l/m 0 min 0 min 0 W/m 0,0 km/h (0 Bft) 97,87 %
31.10.2020 03:30 13,8 C 12,8 C 12,2 C 92 % 1023,2 hPa 0,0 l/m 0 min 0 min 0 W/m 3,2 km/h (1 Bft) 97,87 %
31.10.2020 03:32 13,8 C 12,8 C 12,2 C 92 % 1023,2 hPa 0,0 l/m 0 min 0 min 0 W/m 6,4 km/h (2 Bft) 97,87 %
31.10.2020 03:34 13,8 C 12,8 C 12,2 C 92 % 1023,2 hPa 0,0 l/m 0 min 0 min 0 W/m 0,0 km/h (0 Bft) 95,74 %
31.10.2020 03:36 13,8 C 12,8 C 12,2 C 92 % 1023,1 hPa 0,0 l/m 0 min 0 min 0 W/m 0,0 km/h (0 Bft) 97,87 %
31.10.2020 03:38 13,8 C 12,8 C 12,2 C 92 % 1023,1 hPa 0,0 l/m 0 min 0 min 0 W/m 0,0 km/h (0 Bft) 97,87 %
31.10.2020 03:40 13,8 C 12,8 C 12,2 C 92 % 1023,1 hPa 0,0 l/m 0 min 0 min 0 W/m 0,0 km/h (0 Bft) 97,87 %
31.10.2020 03:42 13,8 C 12,8 C 12,2 C 92 % 1023,1 hPa 0,0 l/m 0 min 0 min 0 W/m 0,0 km/h (0 Bft) 97,87 %
31.10.2020 03:44 13,8 C 12,8 C 12,2 C 92 % 1023,1 hPa 0,0 l/m 0 min 0 min 0 W/m 6,4 km/h (2 Bft) 97,87 %
31.10.2020 03:46 13,8 C 12,8 C 12,2 C 92 % 1023,1 hPa 0,0 l/m 0 min 0 min 0 W/m 3,2 km/h (1 Bft) 97,87 %
31.10.2020 03:48 13,8 C 12,8 C 12,2 C 92 % 1023,0 hPa 0,0 l/m 0 min 0 min 0 W/m 0,0 km/h (0 Bft) 95,74 %
31.10.2020 03:50 13,8 C 12,8 C 12,2 C 92 % 1023,0 hPa 0,0 l/m 0 min 0 min 0 W/m 0,0 km/h (0 Bft) 97,87 %
31.10.2020 03:52 13,8 C 12,8 C 12,2 C 92 % 1023,0 hPa 0,0 l/m 0 min 0 min 0 W/m 3,2 km/h (1 Bft) 97,87 %
31.10.2020 03:54 13,7 C 12,8 C 12,2 C 92 % 1023,0 hPa 0,0 l/m 0 min 0 min 0 W/m 6,4 km/h (2 Bft) 93,62 %
31.10.2020 03:56 13,7 C 12,8 C 12,2 C 92 % 1023,1 hPa 0,0 l/m 0 min 0 min 0 W/m 3,2 km/h (1 Bft) 95,74 %
31.10.2020 03:58 13,7 C 12,8 C 12,2 C 92 % 1023,1 hPa 0,0 l/m 0 min 0 min 0 W/m 3,2 km/h (1 Bft) 97,87 %
31.10.2020 04:00 13,7 C 12,8 C 12,2 C 92 % 1023,1 hPa 0,0 l/m 0 min 0 min 0 W/m 3,2 km/h (1 Bft) 97,87 %
31.10.2020 04:02 13,7 C 12,8 C 12,2 C 92 % 1023,1 hPa 0,0 l/m 0 min 0 min 0 W/m 0,0 km/h (0 Bft) 100,00 %
31.10.2020 04:04 13,7 C 12,8 C 12,2 C 92 % 1023,1 hPa 0,0 l/m 0 min 0 min 0 W/m 3,2 km/h (1 Bft) 95,74 %
31.10.2020 04:06 13,7 C 12,8 C 12,2 C 92 % 1023,1 hPa 0,0 l/m 0 min 0 min 0 W/m 0,0 km/h (0 Bft) 95,74 %
31.10.2020 04:08 13,6 C 12,8 C 12,2 C 92 % 1023,0 hPa 0,0 l/m 0 min 0 min 0 W/m 3,2 km/h (1 Bft) 95,74 %
31.10.2020 04:10 13,6 C 12,8 C 12,2 C 92 % 1023,0 hPa 0,0 l/m 0 min 0 min 0 W/m 0,0 km/h (0 Bft) 93,62 %
31.10.2020 04:12 13,6 C 12,8 C 11,7 C 92 % 1023,0 hPa 0,0 l/m 0 min 0 min 0 W/m 3,2 km/h (1 Bft) 93,62 %
31.10.2020 04:14 13,6 C 12,8 C 11,7 C 92 % 1023,0 hPa 0,0 l/m 0 min 0 min 0 W/m 3,2 km/h (1 Bft) 93,48 %
31.10.2020 04:16 13,6 C 12,8 C 11,7 C 92 % 1023,0 hPa 0,0 l/m 0 min 0 min 0 W/m 3,2 km/h (1 Bft) 91,49 %
31.10.2020 04:18 13,6 C 12,8 C 11,7 C 92 % 1023,0 hPa 0,0 l/m 0 min 0 min 0 W/m 6,4 km/h (2 Bft) 95,00 %
31.10.2020 04:20 13,6 C 12,8 C 11,7 C 92 % 1023,0 hPa 0,0 l/m 0 min 0 min 0 W/m 0,0 km/h (0 Bft) 89,36 %
31.10.2020 04:22 13,6 C 12,8 C 11,7 C 92 % 1023,0 hPa 0,0 l/m 0 min 0 min 0 W/m 0,0 km/h (0 Bft) 95,65 %
31.10.2020 04:24 13,5 C 12,8 C 11,7 C 92 % 1023,0 hPa 0,0 l/m 0 min 0 min 0 W/m 3,2 km/h (1 Bft) 91,67 %
31.10.2020 04:26 13,5 C 12,8 C 11,7 C 92 % 1023,0 hPa 0,0 l/m 0 min 0 min 0 W/m 6,4 km/h (2 Bft) 93,62 %
31.10.2020 04:28 13,5 C 12,8 C 11,7 C 92 % 1023,0 hPa 0,0 l/m 0 min 0 min 0 W/m 6,4 km/h (2 Bft) 95,74 %
31.10.2020 04:30 13,5 C 12,8 C 12,2 C 92 % 1023,0 hPa 0,0 l/m 0 min 0 min 0 W/m 6,4 km/h (2 Bft) 95,74 %
31.10.2020 04:32 13,5 C 12,8 C 12,2 C 92 % 1023,0 hPa 0,0 l/m 0 min 0 min 0 W/m 3,2 km/h (1 Bft) 95,74 %
31.10.2020 04:34 13,5 C 12,8 C 12,2 C 92 % 1023,0 hPa 0,0 l/m 0 min 0 min 0 W/m 3,2 km/h (1 Bft) 93,48 %
31.10.2020 04:36 13,5 C 12,8 C 12,2 C 92 % 1023,0 hPa 0,0 l/m 0 min 0 min 0 W/m 0,0 km/h (0 Bft) 95,74 %
31.10.2020 04:38 13,5 C 12,8 C 12,2 C 92 % 1023,0 hPa 0,0 l/m 0 min 0 min 0 W/m 16,1 km/h (3 Bft) 93,62 %
31.10.2020 04:40 13,5 C 12,8 C 12,2 C 92 % 1022,9 hPa 0,0 l/m 0 min 0 min 0 W/m 0,0 km/h (0 Bft) 93,75 %
31.10.2020 04:42 13,5 C 12,8 C 12,2 C 92 % 1022,9 hPa 0,0 l/m 0 min 0 min 0 W/m 3,2 km/h (1 Bft) 95,74 %
31.10.2020 04:44 13,5 C 12,8 C 12,2 C 92 % 1022,9 hPa 0,0 l/m 0 min 0 min 0 W/m 3,2 km/h (1 Bft) 93,62 %
31.10.2020 04:46 13,5 C 12,8 C 12,2 C 92 % 1022,9 hPa 0,0 l/m 0 min 0 min 0 W/m 0,0 km/h (0 Bft) 93,62 %
31.10.2020 04:48 13,5 C 12,8 C 12,2 C 92 % 1022,9 hPa 0,0 l/m 0 min 0 min 0 W/m 0,0 km/h (0 Bft) 93,75 %
31.10.2020 04:50 13,5 C 12,8 C 12,2 C 92 % 1022,9 hPa 0,0 l/m 0 min 0 min 0 W/m 3,2 km/h (1 Bft) 95,74 %
31.10.2020 04:52 13,5 C 12,8 C 12,2 C 92 % 1022,9 hPa 0,0 l/m 0 min 0 min 0 W/m 16,1 km/h (3 Bft) 95,74 %
31.10.2020 04:54 13,5 C 12,8 C 12,2 C 92 % 1022,8 hPa 0,0 l/m 0 min 0 min 0 W/m 3,2 km/h (1 Bft) 95,74 %
31.10.2020 04:56 13,5 C 12,8 C 12,2 C 93 % 1022,8 hPa 0,0 l/m 0 min 0 min 0 W/m 0,0 km/h (0 Bft) 93,62 %
31.10.2020 04:58 13,5 C 12,8 C 12,2 C 93 % 1022,8 hPa 0,0 l/m 0 min 0 min 0 W/m 0,0 km/h (0 Bft) 97,87 %
31.10.2020 05:00 13,5 C 12,8 C 12,2 C 93 % 1022,8 hPa 0,0 l/m 0 min 0 min 0 W/m 0,0 km/h (0 Bft) 100,00 %
31.10.2020 05:02 13,5 C 12,8 C 12,2 C 93 % 1022,8 hPa 0,0 l/m 0 min 0 min 0 W/m 3,2 km/h (1 Bft) 100,00 %
31.10.2020 05:04 13,5 C 12,8 C 12,2 C 93 % 1022,8 hPa 0,0 l/m 0 min 0 min 0 W/m 0,0 km/h (0 Bft) 97,87 %
31.10.2020 05:06 13,4 C 12,8 C 12,2 C 93 % 1022,9 hPa 0,0 l/m 0 min 0 min 0 W/m 0,0 km/h (0 Bft) 97,87 %
31.10.2020 05:08 13,4 C 12,8 C 12,2 C 93 % 1022,8 hPa 0,0 l/m 0 min 0 min 0 W/m 0,0 km/h (0 Bft) 100,00 %
31.10.2020 05:10 13,4 C 12,8 C 12,2 C 93 % 1022,8 hPa 0,0 l/m 0 min 0 min 0 W/m 0,0 km/h (0 Bft) 97,87 %
31.10.2020 05:12 13,4 C 12,8 C 12,2 C 93 % 1022,8 hPa 0,0 l/m 0 min 0 min 0 W/m 0,0 km/h (0 Bft) 100,00 %
31.10.2020 05:14 13,4 C 12,8 C 11,7 C 93 % 1022,8 hPa 0,0 l/m 0 min 0 min 0 W/m 12,9 km/h (3 Bft) 100,00 %
31.10.2020 05:16 13,4 C 12,8 C 11,7 C 93 % 1022,8 hPa 0,0 l/m 0 min 0 min 0 W/m 0,0 km/h (0 Bft) 100,00 %
31.10.2020 05:18 13,4 C 12,8 C 11,7 C 93 % 1022,8 hPa 0,0 l/m 0 min 0 min 0 W/m 3,2 km/h (1 Bft) 100,00 %
31.10.2020 05:20 13,4 C 12,8 C 11,7 C 93 % 1022,7 hPa 0,0 l/m 0 min 0 min 0 W/m 3,2 km/h (1 Bft) 100,00 %
31.10.2020 05:22 13,4 C 12,8 C 11,7 C 93 % 1022,7 hPa 0,0 l/m 0 min 0 min 0 W/m 3,2 km/h (1 Bft) 97,83 %
31.10.2020 05:24 13,4 C 12,8 C 11,7 C 93 % 1022,7 hPa 0,0 l/m 0 min 0 min 0 W/m 0,0 km/h (0 Bft) 100,00 %
31.10.2020 05:26 13,4 C 12,8 C 11,7 C 93 % 1022,8 hPa 0,0 l/m 0 min 0 min 0 W/m 6,4 km/h (2 Bft) 100,00 %
31.10.2020 05:28 13,4 C 12,8 C 11,7 C 93 % 1022,8 hPa 0,0 l/m 0 min 0 min 0 W/m 3,2 km/h (1 Bft) 100,00 %
31.10.2020 05:30 13,4 C 12,8 C 11,7 C 93 % 1022,8 hPa 0,0 l/m 0 min 0 min 0 W/m 0,0 km/h (0 Bft) 100,00 %
31.10.2020 05:32 13,4 C 12,8 C 11,7 C 93 % 1022,7 hPa 0,0 l/m 0 min 0 min 0 W/m 0,0 km/h (0 Bft) 100,00 %
31.10.2020 05:34 13,4 C 12,8 C 11,7 C 93 % 1022,7 hPa 0,0 l/m 0 min 0 min 0 W/m 3,2 km/h (1 Bft) 100,00 %
31.10.2020 05:36 13,4 C 12,8 C 11,7 C 93 % 1022,8 hPa 0,0 l/m 0 min 0 min 0 W/m 6,4 km/h (2 Bft) 100,00 %
31.10.2020 05:38 13,4 C 12,8 C 11,7 C 93 % 1022,8 hPa 0,0 l/m 0 min 0 min 0 W/m 6,4 km/h (2 Bft) 100,00 %
31.10.2020 05:40 13,4 C 12,8 C 11,7 C 93 % 1022,7 hPa 0,0 l/m 0 min 0 min 0 W/m 0,0 km/h (0 Bft) 100,00 %
31.10.2020 05:42 13,4 C 12,8 C 11,7 C 93 % 1022,7 hPa 0,0 l/m 0 min 0 min 0 W/m 0,0 km/h (0 Bft) 100,00 %
31.10.2020 05:44 13,4 C 12,8 C 11,7 C 93 % 1022,7 hPa 0,0 l/m 0 min 0 min 0 W/m 0,0 km/h (0 Bft) 100,00 %
31.10.2020 05:46 13,4 C 12,8 C 11,7 C 93 % 1022,7 hPa 0,0 l/m 0 min 0 min 0 W/m 0,0 km/h (0 Bft) 100,00 %
31.10.2020 05:48 13,4 C 12,8 C 11,7 C 93 % 1022,8 hPa 0,0 l/m 0 min 0 min 0 W/m 0,0 km/h (0 Bft) 100,00 %
31.10.2020 05:50 13,3 C 12,2 C 11,7 C 93 % 1022,8 hPa 0,0 l/m 0 min 0 min 0 W/m 6,4 km/h (2 Bft) 100,00 %
31.10.2020 05:52 13,3 C 12,2 C 11,7 C 93 % 1022,8 hPa 0,0 l/m 0 min 0 min 0 W/m 3,2 km/h (1 Bft) 100,00 %
31.10.2020 05:54 13,3 C 12,2 C 11,7 C 93 % 1022,9 hPa 0,0 l/m 0 min 0 min 0 W/m 6,4 km/h (2 Bft) 100,00 %
31.10.2020 05:56 13,3 C 12,2 C 11,7 C 93 % 1022,8 hPa 0,0 l/m 0 min 0 min 0 W/m 3,2 km/h (1 Bft) 100,00 %
31.10.2020 05:58 13,3 C 12,2 C 11,7 C 93 % 1022,8 hPa 0,0 l/m 0 min 0 min 0 W/m 6,4 km/h (2 Bft) 100,00 %
31.10.2020 06:00 13,3 C 12,2 C 11,7 C 93 % 1022,7 hPa 0,0 l/m 0 min 0 min 0 W/m 0,0 km/h (0 Bft) 100,00 %
31.10.2020 06:02 13,3 C 12,2 C 11,7 C 93 % 1022,7 hPa 0,0 l/m 0 min 0 min 0 W/m 12,9 km/h (3 Bft) 97,87 %
31.10.2020 06:04 13,3 C 12,2 C 11,7 C 93 % 1022,7 hPa 0,0 l/m 0 min 0 min 0 W/m 3,2 km/h (1 Bft) 97,87 %
31.10.2020 06:08 13,3 C 12,2 C 11,7 C 93 % 1022,7 hPa 0,0 l/m 0 min 0 min 0 W/m 6,4 km/h (2 Bft) 98,92 %
31.10.2020 06:10 13,2 C 12,2 C 11,7 C 93 % 1022,7 hPa 0,0 l/m 0 min 0 min 0 W/m 0,0 km/h (0 Bft) 100,00 %
31.10.2020 06:12 13,2 C 12,2 C 11,7 C 93 % 1022,7 hPa 0,0 l/m 0 min 0 min 0 W/m 0,0 km/h (0 Bft) 100,00 %
31.10.2020 06:14 13,2 C 12,2 C 11,7 C 93 % 1022,8 hPa 0,0 l/m 0 min 0 min 0 W/m 6,4 km/h (2 Bft) 97,92 %
31.10.2020 06:16 13,2 C 12,2 C 11,7 C 93 % 1022,8 hPa 0,0 l/m 0 min 0 min 0 W/m 3,2 km/h (1 Bft) 100,00 %
31.10.2020 06:18 13,1 C 12,2 C 11,7 C 93 % 1022,8 hPa 0,0 l/m 0 min 0 min 0 W/m 0,0 km/h (0 Bft) 100,00 %
31.10.2020 06:20 13,1 C 12,2 C 11,7 C 93 % 1022,8 hPa 0,0 l/m 0 min 0 min 0 W/m 0,0 km/h (0 Bft) 100,00 %
31.10.2020 06:22 13,1 C 12,2 C 11,7 C 93 % 1022,7 hPa 0,0 l/m 0 min 0 min 0 W/m 0,0 km/h (0 Bft) 100,00 %
31.10.2020 06:24 13,1 C 12,2 C 11,7 C 93 % 1022,8 hPa 0,0 l/m 0 min 0 min 0 W/m 0,0 km/h (0 Bft) 100,00 %
31.10.2020 06:26 13,1 C 12,2 C 11,7 C 93 % 1022,8 hPa 0,0 l/m 0 min 0 min 0 W/m 3,2 km/h (1 Bft) 100,00 %
31.10.2020 06:28 13,1 C 12,2 C 11,7 C 93 % 1022,7 hPa 0,0 l/m 0 min 0 min 0 W/m 3,2 km/h (1 Bft) 100,00 %
31.10.2020 06:30 13,1 C 12,2 C 11,7 C 93 % 1022,7 hPa 0,0 l/m 0 min 0 min 0 W/m 0,0 km/h (0 Bft) 100,00 %
31.10.2020 06:32 13,1 C 12,2 C 11,7 C 93 % 1022,6 hPa 0,0 l/m 0 min 0 min 0 W/m 0,0 km/h (0 Bft) 98,11 %
31.10.2020 06:34 13,1 C 12,2 C 11,7 C 93 % 1022,6 hPa 0,0 l/m 0 min 0 min 0 W/m 0,0 km/h (0 Bft) 100,00 %
31.10.2020 06:36 13,1 C 12,2 C 11,7 C 93 % 1022,6 hPa 0,0 l/m 0 min 0 min 0 W/m 0,0 km/h (0 Bft) 100,00 %
31.10.2020 06:38 13,1 C 12,2 C 11,7 C 93 % 1022,6 hPa 0,0 l/m 0 min 0 min 0 W/m 12,9 km/h (3 Bft) 100,00 %
31.10.2020 06:40 13,1 C 12,2 C 11,7 C 93 % 1022,5 hPa 0,0 l/m 0 min 0 min 0 W/m 6,4 km/h (2 Bft) 97,83 %
31.10.2020 06:42 13,0 C 12,2 C 11,7 C 93 % 1022,5 hPa 0,0 l/m 0 min 0 min 0 W/m 6,4 km/h (2 Bft) 100,00 %
31.10.2020 06:44 13,0 C 12,2 C 11,7 C 93 % 1022,5 hPa 0,0 l/m 0 min 0 min 0 W/m 3,2 km/h (1 Bft) 100,00 %
31.10.2020 06:46 13,0 C 12,2 C 11,7 C 93 % 1022,5 hPa 0,0 l/m 0 min 0 min 0 W/m 0,0 km/h (0 Bft) 100,00 %
31.10.2020 06:48 13,0 C 12,2 C 11,7 C 93 % 1022,4 hPa 0,0 l/m 0 min 0 min 0 W/m 0,0 km/h (0 Bft) 100,00 %
31.10.2020 06:50 13,0 C 12,2 C 11,7 C 93 % 1022,5 hPa 0,0 l/m 0 min 0 min 0 W/m 0,0 km/h (0 Bft) 97,87 %
31.10.2020 06:52 13,0 C 12,2 C 11,7 C 93 % 1022,5 hPa 0,0 l/m 0 min 0 min 0 W/m 0,0 km/h (0 Bft) 97,83 %
31.10.2020 06:54 13,0 C 12,2 C 11,7 C 93 % 1022,5 hPa 0,0 l/m 0 min 0 min 0 W/m 0,0 km/h (0 Bft) 97,87 %
31.10.2020 06:56 13,0 C 12,2 C 11,7 C 93 % 1022,4 hPa 0,0 l/m 0 min 0 min 0 W/m 0,0 km/h (0 Bft) 95,74 %
31.10.2020 06:58 13,0 C 12,2 C 11,7 C 93 % 1022,4 hPa 0,0 l/m 0 min 0 min 0 W/m 3,2 km/h (1 Bft) 94,00 %
31.10.2020 07:00 13,0 C 12,2 C 11,7 C 93 % 1022,4 hPa 0,0 l/m 0 min 0 min 0 W/m 3,2 km/h (1 Bft) 91,67 %
31.10.2020 07:02 13,0 C 12,2 C 11,7 C 93 % 1022,4 hPa 0,0 l/m 0 min 0 min 0 W/m 0,0 km/h (0 Bft) 93,48 %
31.10.2020 07:04 13,0 C 12,2 C 11,7 C 93 % 1022,4 hPa 0,0 l/m 0 min 0 min 0 W/m 0,0 km/h (0 Bft) 95,74 %
31.10.2020 07:06 13,0 C 12,2 C 11,7 C 93 % 1022,4 hPa 0,0 l/m 0 min 0 min 0 W/m 0,0 km/h (0 Bft) 93,62 %
31.10.2020 07:08 13,0 C 12,2 C 11,7 C 93 % 1022,4 hPa 0,0 l/m 0 min 0 min 0 W/m 0,0 km/h (0 Bft) 93,75 %
31.10.2020 07:10 13,0 C 12,2 C 11,7 C 93 % 1022,4 hPa 0,0 l/m 0 min 0 min 0 W/m 0,0 km/h (0 Bft) 93,75 %
31.10.2020 07:12 13,0 C 12,2 C 11,7 C 93 % 1022,4 hPa 0,0 l/m 0 min 0 min 0 W/m 0,0 km/h (0 Bft) 91,30 %
31.10.2020 07:14 13,0 C 12,2 C 11,7 C 93 % 1022,4 hPa 0,0 l/m 0 min 0 min 0 W/m 0,0 km/h (0 Bft) 93,75 %
31.10.2020 07:16 12,9 C 12,2 C 11,7 C 93 % 1022,3 hPa 0,0 l/m 0 min 0 min 0 W/m 3,2 km/h (1 Bft) 93,62 %
31.10.2020 07:18 12,9 C 12,2 C 11,7 C 93 % 1022,3 hPa 0,0 l/m 0 min 0 min 0 W/m 0,0 km/h (0 Bft) 93,62 %
31.10.2020 07:20 12,9 C 12,2 C 11,7 C 93 % 1022,2 hPa 0,0 l/m 0 min 0 min 0 W/m 0,0 km/h (0 Bft) 93,48 %
31.10.2020 07:22 12,9 C 12,2 C 11,7 C 93 % 1022,2 hPa 0,0 l/m 0 min 0 min 0 W/m 0,0 km/h (0 Bft) 93,62 %
31.10.2020 07:24 12,9 C 12,2 C 11,7 C 93 % 1022,3 hPa 0,0 l/m 0 min 0 min 0 W/m 0,0 km/h (0 Bft) 87,23 %
31.10.2020 07:26 12,9 C 12,2 C 11,7 C 93 % 1022,4 hPa 0,0 l/m 0 min 0 min 0 W/m 0,0 km/h (0 Bft) 91,89 %
31.10.2020 07:28 12,9 C 12,2 C 11,7 C 93 % 1022,4 hPa 0,0 l/m 0 min 0 min 0 W/m 0,0 km/h (0 Bft) 91,67 %
31.10.2020 07:30 12,9 C 12,2 C 11,7 C 93 % 1022,4 hPa 0,0 l/m 0 min 0 min 0 W/m 0,0 km/h (0 Bft) 93,62 %
31.10.2020 07:32 12,9 C 12,2 C 11,7 C 93 % 1022,4 hPa 0,0 l/m 0 min 0 min 0 W/m 0,0 km/h (0 Bft) 91,67 %
31.10.2020 07:34 12,9 C 12,2 C 11,7 C 93 % 1022,4 hPa 0,0 l/m 0 min 0 min 0 W/m 0,0 km/h (0 Bft) 91,67 %
31.10.2020 07:36 12,9 C 12,2 C 11,7 C 93 % 1022,4 hPa 0,0 l/m 0 min 0 min 2 W/m 0,0 km/h (0 Bft) 93,75 %
31.10.2020 07:38 12,9 C 12,2 C 11,7 C 93 % 1022,5 hPa 0,0 l/m 0 min 0 min 5 W/m 0,0 km/h (0 Bft) 93,48 %
31.10.2020 07:40 12,9 C 12,2 C 11,7 C 93 % 1022,4 hPa 0,0 l/m 0 min 0 min 5 W/m 0,0 km/h (0 Bft) 93,62 %
31.10.2020 07:42 12,9 C 12,2 C 11,7 C 93 % 1022,4 hPa 0,0 l/m 0 min 0 min 5 W/m 0,0 km/h (0 Bft) 93,88 %
31.10.2020 07:44 12,9 C 12,2 C 11,7 C 93 % 1022,4 hPa 0,0 l/m 0 min 0 min 6 W/m 0,0 km/h (0 Bft) 95,65 %
31.10.2020 07:46 12,9 C 12,2 C 11,7 C 93 % 1022,4 hPa 0,0 l/m 0 min 0 min 7 W/m 0,0 km/h (0 Bft) 93,62 %
31.10.2020 07:48 12,9 C 12,2 C 11,7 C 93 % 1022,3 hPa 0,0 l/m 0 min 0 min 8 W/m 0,0 km/h (0 Bft) 93,62 %
31.10.2020 07:50 12,9 C 12,2 C 11,7 C 93 % 1022,3 hPa 0,0 l/m 0 min 0 min 9 W/m 0,0 km/h (0 Bft) 89,36 %
31.10.2020 07:52 12,9 C 12,2 C 11,7 C 93 % 1022,3 hPa 0,0 l/m 0 min 0 min 10 W/m 0,0 km/h (0 Bft) 93,62 %
31.10.2020 07:54 12,9 C 12,2 C 11,7 C 93 % 1022,3 hPa 0,0 l/m 0 min 0 min 11 W/m 0,0 km/h (0 Bft) 95,74 %
31.10.2020 07:56 12,9 C 12,2 C 11,7 C 93 % 1022,4 hPa 0,0 l/m 0 min 0 min 11 W/m 6,4 km/h (2 Bft) 95,65 %
31.10.2020 07:58 12,9 C 12,2 C 11,7 C 93 % 1022,4 hPa 0,0 l/m 0 min 0 min 11 W/m 0,0 km/h (0 Bft) 97,87 %
31.10.2020 08:00 12,9 C 12,2 C 11,7 C 93 % 1022,4 hPa 0,0 l/m 0 min 0 min 12 W/m 0,0 km/h (0 Bft) 97,87 %
31.10.2020 08:02 12,9 C 12,2 C 11,7 C 93 % 1022,4 hPa 0,0 l/m 0 min 0 min 12 W/m 0,0 km/h (0 Bft) 100,00 %
31.10.2020 08:04 12,9 C 12,2 C 11,7 C 93 % 1022,4 hPa 0,0 l/m 0 min 0 min 14 W/m 0,0 km/h (0 Bft) 100,00 %
31.10.2020 08:06 12,9 C 12,2 C 11,7 C 93 % 1022,4 hPa 0,0 l/m 0 min 0 min 15 W/m 0,0 km/h (0 Bft) 97,87 %
31.10.2020 08:08 12,9 C 12,2 C 11,7 C 93 % 1022,3 hPa 0,0 l/m 0 min 0 min 16 W/m 0,0 km/h (0 Bft) 97,92 %
31.10.2020 08:10 12,9 C 12,2 C 11,7 C 93 % 1022,2 hPa 0,0 l/m 0 min 0 min 19 W/m 3,2 km/h (1 Bft) 100,00 %
31.10.2020 08:12 12,9 C 12,2 C 11,7 C 93 % 1022,2 hPa 0,0 l/m 0 min 0 min 20 W/m 0,0 km/h (0 Bft) 100,00 %
31.10.2020 08:14 12,8 C 12,2 C 11,7 C 93 % 1022,3 hPa 0,0 l/m 0 min 0 min 20 W/m 0,0 km/h (0 Bft) 95,74 %
31.10.2020 08:16 12,9 C 12,2 C 11,7 C 93 % 1022,3 hPa 0,0 l/m 0 min 0 min 19 W/m 3,2 km/h (1 Bft) 100,00 %
31.10.2020 08:18 12,8 C 12,2 C 11,7 C 93 % 1022,2 hPa 0,0 l/m 0 min 0 min 22 W/m 3,2 km/h (1 Bft) 97,87 %
31.10.2020 08:20 12,8 C 12,2 C 11,7 C 93 % 1022,2 hPa 0,0 l/m 0 min 0 min 24 W/m 0,0 km/h (0 Bft) 100,00 %
31.10.2020 08:22 12,8 C 12,8 C 11,7 C 93 % 1022,1 hPa 0,0 l/m 0 min 0 min 26 W/m 0,0 km/h (0 Bft) 100,00 %
31.10.2020 08:24 12,8 C 12,8 C 11,7 C 93 % 1022,1 hPa 0,0 l/m 0 min 0 min 26 W/m 6,4 km/h (2 Bft) 100,00 %
31.10.2020 08:26 12,9 C 12,8 C 11,7 C 93 % 1022,1 hPa 0,0 l/m 0 min 0 min 26 W/m 0,0 km/h (0 Bft) 100,00 %
31.10.2020 08:28 12,9 C 12,8 C 11,7 C 93 % 1022,1 hPa 0,0 l/m 0 min 0 min 29 W/m 0,0 km/h (0 Bft) 97,83 %
31.10.2020 08:30 12,9 C 12,8 C 11,7 C 93 % 1022,1 hPa 0,0 l/m 0 min 0 min 30 W/m 0,0 km/h (0 Bft) 100,00 %
31.10.2020 08:32 12,9 C 12,8 C 11,7 C 93 % 1022,0 hPa 0,0 l/m 0 min 0 min 30 W/m 3,2 km/h (1 Bft) 100,00 %
31.10.2020 08:34 12,9 C 12,8 C 11,7 C 93 % 1022,0 hPa 0,0 l/m 0 min 0 min 32 W/m 0,0 km/h (0 Bft) 100,00 %
31.10.2020 08:36 12,9 C 12,8 C 11,7 C 93 % 1021,9 hPa 0,0 l/m 0 min 0 min 33 W/m 3,2 km/h (1 Bft) 100,00 %
31.10.2020 08:38 12,9 C 12,8 C 11,7 C 93 % 1021,9 hPa 0,0 l/m 0 min 0 min 33 W/m 6,4 km/h (2 Bft) 100,00 %
31.10.2020 08:40 12,9 C 12,8 C 11,7 C 93 % 1021,9 hPa 0,0 l/m 0 min 0 min 32 W/m 3,2 km/h (1 Bft) 100,00 %
31.10.2020 08:42 12,9 C 12,8 C 11,7 C 93 % 1021,9 hPa 0,0 l/m 0 min 0 min 33 W/m 0,0 km/h (0 Bft) 100,00 %
31.10.2020 08:44 12,9 C 12,8 C 11,7 C 93 % 1021,9 hPa 0,0 l/m 0 min 0 min 33 W/m 6,4 km/h (2 Bft) 100,00 %
31.10.2020 08:46 12,9 C 12,8 C 11,7 C 93 % 1021,9 hPa 0,0 l/m 0 min 0 min 35 W/m 3,2 km/h (1 Bft) 100,00 %
31.10.2020 08:48 12,9 C 12,8 C 11,7 C 93 % 1021,9 hPa 0,0 l/m 0 min 0 min 34 W/m 0,0 km/h (0 Bft) 100,00 %
31.10.2020 08:50 12,9 C 12,8 C 11,7 C 93 % 1021,9 hPa 0,0 l/m 0 min 0 min 33 W/m 3,2 km/h (1 Bft) 100,00 %
31.10.2020 08:52 12,9 C 12,8 C 11,7 C 93 % 1021,9 hPa 0,0 l/m 0 min 0 min 34 W/m 3,2 km/h (1 Bft) 100,00 %
31.10.2020 08:54 12,9 C 12,8 C 11,7 C 93 % 1021,9 hPa 0,0 l/m 0 min 0 min 36 W/m 3,2 km/h (1 Bft) 100,00 %
31.10.2020 08:56 12,9 C 12,8 C 11,7 C 93 % 1021,8 hPa 0,0 l/m 0 min 0 min 41 W/m 3,2 km/h (1 Bft) 100,00 %
31.10.2020 08:58 12,9 C 12,8 C 11,7 C 93 % 1021,8 hPa 0,0 l/m 0 min 0 min 40 W/m 0,0 km/h (0 Bft) 100,00 %
31.10.2020 09:00 13,0 C 12,8 C 11,7 C 93 % 1021,8 hPa 0,0 l/m 0 min 0 min 42 W/m 6,4 km/h (2 Bft) 100,00 %
31.10.2020 09:02 13,0 C 12,8 C 11,7 C 93 % 1021,8 hPa 0,0 l/m 0 min 0 min 48 W/m 0,0 km/h (0 Bft) 100,00 %
31.10.2020 09:04 13,0 C 12,8 C 11,7 C 93 % 1021,8 hPa 0,0 l/m 0 min 0 min 55 W/m 3,2 km/h (1 Bft) 100,00 %
31.10.2020 09:06 13,0 C 12,8 C 12,2 C 93 % 1021,8 hPa 0,0 l/m 0 min 0 min 57 W/m 6,4 km/h (2 Bft) 100,00 %
31.10.2020 09:08 13,0 C 12,8 C 12,2 C 93 % 1021,8 hPa 0,0 l/m 0 min 0 min 52 W/m 6,4 km/h (2 Bft) 100,00 %
31.10.2020 09:10 13,0 C 12,8 C 12,2 C 93 % 1021,7 hPa 0,0 l/m 0 min 0 min 47 W/m 3,2 km/h (1 Bft) 100,00 %
31.10.2020 09:12 13,0 C 12,8 C 12,2 C 93 % 1021,7 hPa 0,0 l/m 0 min 0 min 48 W/m 6,4 km/h (2 Bft) 100,00 %
31.10.2020 09:14 13,0 C 12,8 C 12,2 C 93 % 1021,7 hPa 0,0 l/m 0 min 0 min 56 W/m 6,4 km/h (2 Bft) 100,00 %
31.10.2020 09:16 13,0 C 12,8 C 12,2 C 93 % 1021,6 hPa 0,0 l/m 0 min 0 min 63 W/m 0,0 km/h (0 Bft) 100,00 %
31.10.2020 09:18 13,1 C 12,8 C 12,2 C 92 % 1021,7 hPa 0,0 l/m 0 min 0 min 68 W/m 6,4 km/h (2 Bft) 100,00 %
31.10.2020 09:20 13,1 C 12,8 C 12,2 C 92 % 1021,7 hPa 0,0 l/m 0 min 0 min 70 W/m 6,4 km/h (2 Bft) 100,00 %
31.10.2020 09:22 13,1 C 12,8 C 12,2 C 92 % 1021,6 hPa 0,0 l/m 0 min 0 min 70 W/m 3,2 km/h (1 Bft) 100,00 %
31.10.2020 09:24 13,1 C 13,3 C 12,2 C 92 % 1021,6 hPa 0,0 l/m 0 min 0 min 76 W/m 6,4 km/h (2 Bft) 100,00 %
31.10.2020 09:26 13,1 C 13,3 C 12,2 C 92 % 1021,5 hPa 0,0 l/m 0 min 0 min 80 W/m 6,4 km/h (2 Bft) 100,00 %
31.10.2020 09:28 13,1 C 13,3 C 12,2 C 92 % 1021,5 hPa 0,0 l/m 0 min 0 min 71 W/m 3,2 km/h (1 Bft) 100,00 %
31.10.2020 09:30 13,2 C 13,3 C 12,2 C 92 % 1021,5 hPa 0,0 l/m 0 min 0 min 64 W/m 3,2 km/h (1 Bft) 100,00 %
31.10.2020 09:32 13,2 C 13,3 C 12,2 C 92 % 1021,5 hPa 0,0 l/m 0 min 0 min 66 W/m 6,4 km/h (2 Bft) 96,00 %
31.10.2020 09:34 13,2 C 13,3 C 12,2 C 92 % 1021,5 hPa 0,0 l/m 0 min 0 min 69 W/m 6,4 km/h (2 Bft) 97,87 %
31.10.2020 09:36 13,2 C 13,3 C 12,2 C 92 % 1021,5 hPa 0,0 l/m 0 min 0 min 73 W/m 16,1 km/h (3 Bft) 97,87 %
31.10.2020 09:38 13,2 C 13,3 C 12,2 C 92 % 1021,4 hPa 0,0 l/m 0 min 0 min 76 W/m 3,2 km/h (1 Bft) 97,83 %
31.10.2020 09:40 13,2 C 13,3 C 12,2 C 92 % 1021,4 hPa 0,0 l/m 0 min 0 min 81 W/m 6,4 km/h (2 Bft) 97,87 %
31.10.2020 09:42 13,3 C 13,3 C 12,2 C 92 % 1021,4 hPa 0,0 l/m 0 min 0 min 81 W/m 6,4 km/h (2 Bft) 97,87 %
31.10.2020 09:44 13,3 C 13,3 C 12,2 C 92 % 1021,4 hPa 0,0 l/m 0 min 0 min 85 W/m 3,2 km/h (1 Bft) 97,62 %
31.10.2020 09:46 13,3 C 13,3 C 12,2 C 92 % 1021,3 hPa 0,0 l/m 0 min 0 min 95 W/m 16,1 km/h (3 Bft) 95,65 %
31.10.2020 09:48 13,3 C 13,3 C 12,2 C 92 % 1021,3 hPa 0,0 l/m 0 min 0 min 104 W/m 16,1 km/h (3 Bft) 96,00 %
31.10.2020 09:50 13,3 C 13,9 C 12,2 C 91 % 1021,2 hPa 0,0 l/m 0 min 0 min 110 W/m 16,1 km/h (3 Bft) 95,74 %
31.10.2020 09:52 13,3 C 13,9 C 12,2 C 91 % 1021,3 hPa 0,0 l/m 0 min 0 min 111 W/m 3,2 km/h (1 Bft) 95,74 %
31.10.2020 09:54 13,4 C 13,9 C 12,8 C 91 % 1021,2 hPa 0,0 l/m 0 min 0 min 115 W/m 12,9 km/h (3 Bft) 95,83 %
31.10.2020 09:56 13,4 C 13,9 C 12,8 C 91 % 1021,2 hPa 0,0 l/m 0 min 0 min 122 W/m 9,7 km/h (2 Bft) 95,65 %
31.10.2020 09:58 13,4 C 13,9 C 12,8 C 91 % 1021,2 hPa 0,0 l/m 0 min 0 min 130 W/m 3,2 km/h (1 Bft) 97,87 %
31.10.2020 10:00 13,4 C 13,9 C 12,8 C 91 % 1021,2 hPa 0,0 l/m 0 min 0 min 130 W/m 3,2 km/h (1 Bft) 97,87 %
31.10.2020 10:02 13,4 C 13,9 C 12,8 C 91 % 1021,1 hPa 0,0 l/m 0 min 0 min 141 W/m 16,1 km/h (3 Bft) 93,62 %
31.10.2020 10:04 13,5 C 14,4 C 12,8 C 91 % 1021,0 hPa 0,0 l/m 0 min 0 min 155 W/m 12,9 km/h (3 Bft) 95,74 %
31.10.2020 10:06 13,5 C 14,4 C 12,8 C 91 % 1021,0 hPa 0,0 l/m 2 min 0 min 179 W/m 12,9 km/h (3 Bft) 93,75 %
31.10.2020 10:08 13,5 C 15,6 C 12,8 C 90 % 1021,0 hPa 0,0 l/m 2 min 0 min 224 W/m 6,4 km/h (2 Bft) 93,62 %
31.10.2020 10:10 13,6 C 16,7 C 13,4 C 90 % 1021,0 hPa 0,0 l/m 2 min 0 min 363 W/m 6,4 km/h (2 Bft) 95,74 %
31.10.2020 10:12 13,6 C 16,7 C 13,4 C 90 % 1020,9 hPa 0,0 l/m 2 min 0 min 365 W/m 16,1 km/h (3 Bft) 95,74 %
31.10.2020 10:14 13,7 C 16,1 C 13,4 C 90 % 1020,8 hPa 0,0 l/m 2 min 0 min 328 W/m 16,1 km/h (3 Bft) 95,65 %
31.10.2020 10:16 13,8 C 16,1 C 13,4 C 90 % 1020,8 hPa 0,0 l/m 2 min 0 min 324 W/m 6,4 km/h (2 Bft) 95,74 %
31.10.2020 10:18 13,8 C 16,1 C 12,8 C 90 % 1020,8 hPa 0,0 l/m 2 min 0 min 327 W/m 16,1 km/h (3 Bft) 97,87 %
31.10.2020 10:20 13,9 C 17,2 C 12,8 C 89 % 1020,8 hPa 0,0 l/m 2 min 0 min 330 W/m 6,4 km/h (2 Bft) 93,62 %
31.10.2020 10:22 13,9 C 18,9 C 12,8 C 89 % 1020,8 hPa 0,0 l/m 2 min 0 min 332 W/m 6,4 km/h (2 Bft) 97,56 %
31.10.2020 10:24 14,0 C 18,3 C 12,8 C 88 % 1020,8 hPa 0,0 l/m 2 min 0 min 300 W/m 12,9 km/h (3 Bft) 97,92 %
31.10.2020 10:26 14,0 C 17,2 C 12,8 C 87 % 1020,7 hPa 0,0 l/m 2 min 0 min 313 W/m 19,3 km/h (3 Bft) 97,87 %
31.10.2020 10:28 14,1 C 16,7 C 12,8 C 87 % 1020,7 hPa 0,0 l/m 2 min 0 min 250 W/m 19,3 km/h (3 Bft) 95,74 %
31.10.2020 10:30 14,2 C 16,1 C 12,8 C 87 % 1020,7 hPa 0,0 l/m 2 min 0 min 220 W/m 6,4 km/h (2 Bft) 95,74 %
31.10.2020 10:32 14,2 C 16,1 C 13,4 C 86 % 1020,7 hPa 0,0 l/m 0 min 0 min 145 W/m 12,9 km/h (3 Bft) 93,48 %
31.10.2020 10:34 14,2 C 16,1 C 12,8 C 86 % 1020,6 hPa 0,0 l/m 2 min 0 min 338 W/m 6,4 km/h (2 Bft) 95,83 %
31.10.2020 10:36 14,2 C 15,6 C 13,4 C 85 % 1020,6 hPa 0,0 l/m 2 min 0 min 192 W/m 3,2 km/h (1 Bft) 93,62 %
31.10.2020 10:38 14,2 C 15,6 C 13,4 C 85 % 1020,5 hPa 0,0 l/m 0 min 0 min 99 W/m 9,7 km/h (2 Bft) 95,65 %
31.10.2020 10:40 14,3 C 15,0 C 13,4 C 85 % 1020,5 hPa 0,0 l/m 0 min 0 min 107 W/m 19,3 km/h (3 Bft) 95,74 %
31.10.2020 10:42 14,4 C 15,0 C 13,4 C 84 % 1020,4 hPa 0,0 l/m 0 min 0 min 121 W/m 29,0 km/h (5 Bft) 93,62 %
31.10.2020 10:44 14,4 C 15,6 C 13,4 C 83 % 1020,4 hPa 0,0 l/m 0 min 0 min 178 W/m 16,1 km/h (3 Bft) 93,62 %
31.10.2020 10:46 14,5 C 15,6 C 13,4 C 83 % 1020,4 hPa 0,0 l/m 2 min 0 min 184 W/m 22,5 km/h (4 Bft) 95,74 %
31.10.2020 10:48 14,5 C 16,1 C 13,4 C 82 % 1020,4 hPa 0,0 l/m 0 min 0 min 171 W/m 16,1 km/h (3 Bft) 95,74 %
31.10.2020 10:50 14,6 C 17,2 C 13,4 C 81 % 1020,3 hPa 0,0 l/m 2 min 0 min 351 W/m 22,5 km/h (4 Bft) 93,48 %
31.10.2020 10:52 14,6 C 17,8 C 13,4 C 81 % 1020,3 hPa 0,0 l/m 2 min 0 min 374 W/m 22,5 km/h (4 Bft) 97,62 %
31.10.2020 10:54 14,7 C 16,7 C 13,4 C 80 % 1020,3 hPa 0,0 l/m 2 min 0 min 377 W/m 22,5 km/h (4 Bft) 93,62 %
31.10.2020 10:56 14,8 C 16,1 C 13,4 C 80 % 1020,3 hPa 0,0 l/m 2 min 0 min 375 W/m 22,5 km/h (4 Bft) 95,74 %
31.10.2020 10:58 14,8 C 16,7 C 13,4 C 79 % 1020,3 hPa 0,0 l/m 2 min 0 min 374 W/m 35,4 km/h (5 Bft) 96,00 %
31.10.2020 11:00 14,9 C 16,1 C 13,4 C 79 % 1020,3 hPa 0,0 l/m 2 min 0 min 374 W/m 19,3 km/h (3 Bft) 93,88 %
31.10.2020 11:02 14,9 C 16,1 C 13,4 C 79 % 1020,3 hPa 0,0 l/m 2 min 0 min 201 W/m 16,1 km/h (3 Bft) 95,65 %
31.10.2020 11:04 15,0 C 16,7 C 13,4 C 79 % 1020,3 hPa 0,0 l/m 0 min 0 min 171 W/m 22,5 km/h (4 Bft) 95,35 %
31.10.2020 11:06 15,0 C 16,1 C 13,4 C 78 % 1020,3 hPa 0,0 l/m 0 min 0 min 130 W/m 19,3 km/h (3 Bft) 97,87 %
31.10.2020 11:08 15,1 C 16,7 C 13,4 C 78 % 1020,3 hPa 0,0 l/m 0 min 0 min 119 W/m 29,0 km/h (5 Bft) 97,87 %
31.10.2020 11:10 15,1 C 18,3 C 13,4 C 78 % 1020,3 hPa 0,0 l/m 2 min 0 min 234 W/m 22,5 km/h (4 Bft) 97,92 %
31.10.2020 11:12 15,1 C 18,9 C 13,4 C 77 % 1020,3 hPa 0,0 l/m 2 min 0 min 370 W/m 19,3 km/h (3 Bft) 97,87 %
31.10.2020 11:14 15,2 C 19,4 C 13,4 C 77 % 1020,2 hPa 0,0 l/m 2 min 0 min 404 W/m 19,3 km/h (3 Bft) 95,83 %
31.10.2020 11:16 15,3 C 19,4 C 13,4 C 77 % 1020,1 hPa 0,0 l/m 2 min 0 min 388 W/m 29,0 km/h (5 Bft) 93,62 %
31.10.2020 11:18 15,3 C 20,0 C 13,4 C 77 % 1020,0 hPa 0,0 l/m 2 min 0 min 386 W/m 25,7 km/h (4 Bft) 97,87 %
31.10.2020 11:20 15,4 C 20,0 C 13,4 C 76 % 1019,9 hPa 0,0 l/m 2 min 0 min 407 W/m 22,5 km/h (4 Bft) 97,83 %
31.10.2020 11:22 15,4 C 20,6 C 13,4 C 76 % 1019,9 hPa 0,0 l/m 2 min 0 min 410 W/m 19,3 km/h (3 Bft) 93,62 %
31.10.2020 11:24 15,5 C 20,6 C 13,4 C 76 % 1019,8 hPa 0,0 l/m 2 min 0 min 414 W/m 16,1 km/h (3 Bft) 97,92 %
31.10.2020 11:26 15,5 C 21,1 C 13,4 C 76 % 1019,9 hPa 0,0 l/m 2 min 0 min 418 W/m 19,3 km/h (3 Bft) 97,87 %
31.10.2020 11:28 15,6 C 20,6 C 13,4 C 76 % 1019,8 hPa 0,0 l/m 2 min 0 min 422 W/m 19,3 km/h (3 Bft) 100,00 %
31.10.2020 11:30 15,7 C 20,6 C 13,4 C 76 % 1019,8 hPa 0,0 l/m 2 min 0 min 420 W/m 25,7 km/h (4 Bft) 100,00 %
31.10.2020 11:32 15,8 C 20,6 C 13,4 C 76 % 1019,8 hPa 0,0 l/m 2 min 0 min 411 W/m 16,1 km/h (3 Bft) 100,00 %
31.10.2020 11:34 15,9 C 20,6 C 13,4 C 76 % 1019,7 hPa 0,0 l/m 2 min 0 min 416 W/m 25,7 km/h (4 Bft) 100,00 %
31.10.2020 11:36 15,9 C 20,6 C 13,4 C 76 % 1019,7 hPa 0,0 l/m 2 min 0 min 417 W/m 19,3 km/h (3 Bft) 100,00 %
31.10.2020 11:38 16,0 C 20,6 C 13,9 C 76 % 1019,6 hPa 0,0 l/m 2 min 0 min 421 W/m 19,3 km/h (3 Bft) 97,83 %
31.10.2020 11:40 16,0 C 21,1 C 13,4 C 76 % 1019,6 hPa 0,0 l/m 2 min 0 min 418 W/m 19,3 km/h (3 Bft) 97,87 %
31.10.2020 11:42 16,1 C 21,1 C 13,9 C 76 % 1019,6 hPa 0,0 l/m 2 min 0 min 422 W/m 19,3 km/h (3 Bft) 95,74 %
31.10.2020 11:44 16,2 C 20,6 C 13,9 C 76 % 1019,6 hPa 0,0 l/m 2 min 0 min 424 W/m 29,0 km/h (5 Bft) 97,87 %
31.10.2020 11:46 16,3 C 20,6 C 13,9 C 76 % 1019,5 hPa 0,0 l/m 2 min 0 min 426 W/m 19,3 km/h (3 Bft) 97,87 %
31.10.2020 11:48 16,3 C 21,1 C 13,9 C 75 % 1019,4 hPa 0,0 l/m 2 min 0 min 420 W/m 22,5 km/h (4 Bft) 97,87 %
31.10.2020 11:50 16,4 C 20,6 C 13,9 C 75 % 1019,4 hPa 0,0 l/m 2 min 0 min 424 W/m 19,3 km/h (3 Bft) 97,83 %
31.10.2020 11:52 16,4 C 20,6 C 13,9 C 75 % 1019,3 hPa 0,0 l/m 2 min 0 min 421 W/m 19,3 km/h (3 Bft) 100,00 %
31.10.2020 11:54 16,5 C 20,6 C 13,9 C 74 % 1019,3 hPa 0,0 l/m 2 min 0 min 419 W/m 19,3 km/h (3 Bft) 97,62 %
31.10.2020 11:56 16,5 C 20,6 C 13,9 C 74 % 1019,3 hPa 0,0 l/m 2 min 0 min 418 W/m 25,7 km/h (4 Bft) 93,48 %
31.10.2020 11:58 16,5 C 20,6 C 13,9 C 74 % 1019,2 hPa 0,0 l/m 2 min 0 min 425 W/m 19,3 km/h (3 Bft) 98,00 %
31.10.2020 12:00 16,6 C 20,6 C 13,9 C 74 % 1019,2 hPa 0,0 l/m 2 min 0 min 422 W/m 19,3 km/h (3 Bft) 97,92 %
31.10.2020 12:02 16,6 C 21,1 C 13,9 C 74 % 1019,1 hPa 0,0 l/m 2 min 0 min 422 W/m 29,0 km/h (5 Bft) 97,87 %
31.10.2020 12:04 16,6 C 20,0 C 13,9 C 74 % 1019,1 hPa 0,0 l/m 2 min 0 min 424 W/m 25,7 km/h (4 Bft) 97,87 %
31.10.2020 12:08 16,7 C 20,6 C 13,9 C 74 % 1019,0 hPa 0,0 l/m 4 min 0 min 425 W/m 25,7 km/h (4 Bft) 97,87 %
31.10.2020 12:10 16,7 C 21,1 C 13,9 C 74 % 1019,0 hPa 0,0 l/m 2 min 0 min 434 W/m 16,1 km/h (3 Bft) 100,00 %
31.10.2020 12:12 16,8 C 20,6 C 13,9 C 74 % 1018,9 hPa 0,0 l/m 2 min 0 min 432 W/m 35,4 km/h (5 Bft) 100,00 %
31.10.2020 12:14 16,8 C 20,0 C 13,9 C 73 % 1018,9 hPa 0,0 l/m 2 min 0 min 432 W/m 35,4 km/h (5 Bft) 97,87 %
31.10.2020 12:16 16,8 C 20,0 C 13,9 C 73 % 1018,9 hPa 0,0 l/m 2 min 0 min 430 W/m 29,0 km/h (5 Bft) 97,87 %
31.10.2020 12:18 16,8 C 20,6 C 14,5 C 73 % 1018,9 hPa 0,0 l/m 2 min 0 min 427 W/m 19,3 km/h (3 Bft) 100,00 %
31.10.2020 12:20 16,8 C 20,0 C 14,5 C 73 % 1018,8 hPa 0,0 l/m 2 min 0 min 433 W/m 22,5 km/h (4 Bft) 100,00 %
31.10.2020 12:22 16,8 C 20,6 C 14,5 C 72 % 1018,8 hPa 0,0 l/m 2 min 0 min 431 W/m 22,5 km/h (4 Bft) 100,00 %
31.10.2020 12:24 16,8 C 20,0 C 14,5 C 72 % 1018,7 hPa 0,0 l/m 2 min 0 min 432 W/m 25,7 km/h (4 Bft) 100,00 %
31.10.2020 12:26 16,8 C 20,0 C 15,0 C 72 % 1018,7 hPa 0,0 l/m 2 min 0 min 434 W/m 35,4 km/h (5 Bft) 97,87 %
31.10.2020 12:28 16,8 C 20,6 C 15,0 C 73 % 1018,6 hPa 0,0 l/m 2 min 0 min 433 W/m 22,5 km/h (4 Bft) 100,00 %
31.10.2020 12:30 16,8 C 20,6 C 16,1 C 73 % 1018,6 hPa 0,0 l/m 2 min 0 min 433 W/m 19,3 km/h (3 Bft) 97,87 %
31.10.2020 12:32 16,8 C 20,6 C 16,7 C 73 % 1018,5 hPa 0,0 l/m 2 min 0 min 430 W/m 32,2 km/h (5 Bft) 95,83 %
31.10.2020 12:34 16,9 C 20,6 C 16,7 C 72 % 1018,5 hPa 0,0 l/m 2 min 0 min 428 W/m 25,7 km/h (4 Bft) 97,87 %
31.10.2020 12:36 16,8 C 20,0 C 16,7 C 72 % 1018,5 hPa 0,0 l/m 2 min 0 min 434 W/m 35,4 km/h (5 Bft) 97,83 %
31.10.2020 12:38 16,8 C 20,0 C 16,1 C 72 % 1018,5 hPa 0,0 l/m 2 min 0 min 433 W/m 25,7 km/h (4 Bft) 98,08 %
31.10.2020 12:40 16,8 C 19,4 C 15,6 C 72 % 1018,5 hPa 0,0 l/m 2 min 0 min 428 W/m 29,0 km/h (5 Bft) 97,83 %
31.10.2020 12:42 16,8 C 20,0 C 15,0 C 72 % 1018,4 hPa 0,0 l/m 2 min 0 min 431 W/m 32,2 km/h (5 Bft) 97,92 %
31.10.2020 12:44 16,8 C 20,0 C 15,0 C 72 % 1018,4 hPa 0,0 l/m 2 min 0 min 431 W/m 29,0 km/h (5 Bft) 95,74 %
31.10.2020 12:46 16,8 C 20,6 C 14,5 C 72 % 1018,3 hPa 0,0 l/m 2 min 0 min 428 W/m 25,7 km/h (4 Bft) 97,83 %
31.10.2020 12:48 16,8 C 20,0 C 14,5 C 72 % 1018,3 hPa 0,0 l/m 2 min 0 min 431 W/m 29,0 km/h (5 Bft) 97,87 %
31.10.2020 12:50 16,8 C 20,6 C 14,5 C 73 % 1018,3 hPa 0,0 l/m 2 min 0 min 429 W/m 22,5 km/h (4 Bft) 97,87 %
31.10.2020 12:52 16,9 C 21,1 C 14,5 C 73 % 1018,3 hPa 0,0 l/m 2 min 0 min 428 W/m 19,3 km/h (3 Bft) 97,87 %
31.10.2020 12:54 16,9 C 20,6 C 14,5 C 72 % 1018,3 hPa 0,0 l/m 2 min 0 min 431 W/m 22,5 km/h (4 Bft) 97,87 %
31.10.2020 12:56 16,9 C 21,1 C 14,5 C 73 % 1018,3 hPa 0,0 l/m 2 min 0 min 431 W/m 25,7 km/h (4 Bft) 97,87 %
31.10.2020 12:58 17,0 C 20,6 C 14,5 C 72 % 1018,3 hPa 0,0 l/m 2 min 0 min 430 W/m 25,7 km/h (4 Bft) 95,65 %
31.10.2020 13:00 17,0 C 20,6 C 14,5 C 72 % 1018,4 hPa 0,0 l/m 2 min 0 min 429 W/m 22,5 km/h (4 Bft) 97,87 %
31.10.2020 13:02 17,0 C 20,6 C 14,5 C 72 % 1018,3 hPa 0,0 l/m 2 min 0 min 427 W/m 25,7 km/h (4 Bft) 95,74 %
31.10.2020 13:04 17,0 C 20,6 C 14,5 C 72 % 1018,3 hPa 0,0 l/m 2 min 0 min 426 W/m 25,7 km/h (4 Bft) 97,87 %
31.10.2020 13:06 17,0 C 20,6 C 14,5 C 72 % 1018,2 hPa 0,0 l/m 2 min 0 min 422 W/m 22,5 km/h (4 Bft) 97,87 %
31.10.2020 13:08 17,1 C 21,1 C 14,5 C 72 % 1018,0 hPa 0,0 l/m 2 min 0 min 422 W/m 25,7 km/h (4 Bft) 95,74 %
31.10.2020 13:10 17,1 C 21,1 C 14,5 C 72 % 1017,9 hPa 0,0 l/m 2 min 0 min 422 W/m 25,7 km/h (4 Bft) 95,65 %
31.10.2020 13:12 17,1 C 20,6 C 14,5 C 72 % 1017,9 hPa 0,0 l/m 2 min 0 min 420 W/m 35,4 km/h (5 Bft) 100,00 %
31.10.2020 13:14 17,1 C 20,6 C 14,5 C 72 % 1017,8 hPa 0,0 l/m 2 min 0 min 417 W/m 29,0 km/h (5 Bft) 100,00 %
31.10.2020 13:16 17,1 C 20,6 C 14,5 C 72 % 1017,8 hPa 0,0 l/m 2 min 0 min 416 W/m 25,7 km/h (4 Bft) 100,00 %
31.10.2020 13:18 17,1 C 20,6 C 14,5 C 72 % 1017,6 hPa 0,0 l/m 2 min 0 min 415 W/m 32,2 km/h (5 Bft) 100,00 %
31.10.2020 13:20 17,1 C 20,6 C 14,5 C 72 % 1017,6 hPa 0,0 l/m 2 min 0 min 413 W/m 25,7 km/h (4 Bft) 97,83 %
31.10.2020 13:22 17,2 C 20,6 C 14,5 C 72 % 1017,6 hPa 0,0 l/m 2 min 0 min 412 W/m 29,0 km/h (5 Bft) 97,87 %
31.10.2020 13:24 17,2 C 20,6 C 14,5 C 72 % 1017,6 hPa 0,0 l/m 2 min 0 min 411 W/m 35,4 km/h (5 Bft) 100,00 %
31.10.2020 13:26 17,2 C 20,6 C 14,5 C 71 % 1017,5 hPa 0,0 l/m 2 min 0 min 409 W/m 32,2 km/h (5 Bft) 100,00 %
31.10.2020 13:28 17,3 C 20,6 C 15,0 C 71 % 1017,5 hPa 0,0 l/m 2 min 0 min 407 W/m 22,5 km/h (4 Bft) 100,00 %
31.10.2020 13:30 17,3 C 20,6 C 15,0 C 72 % 1017,5 hPa 0,0 l/m 2 min 0 min 405 W/m 35,4 km/h (5 Bft) 100,00 %
31.10.2020 13:32 17,3 C 20,6 C 15,0 C 71 % 1017,4 hPa 0,0 l/m 2 min 0 min 404 W/m 25,7 km/h (4 Bft) 100,00 %
31.10.2020 13:34 17,3 C 20,0 C 15,0 C 71 % 1017,5 hPa 0,0 l/m 2 min 0 min 400 W/m 29,0 km/h (5 Bft) 100,00 %
31.10.2020 13:36 17,3 C 20,0 C 14,5 C 71 % 1017,4 hPa 0,0 l/m 2 min 0 min 398 W/m 35,4 km/h (5 Bft) 100,00 %
31.10.2020 13:38 17,3 C 20,0 C 15,0 C 71 % 1017,4 hPa 0,0 l/m 2 min 0 min 396 W/m 38,6 km/h (5 Bft) 100,00 %
31.10.2020 13:40 17,3 C 20,0 C 15,0 C 71 % 1017,3 hPa 0,0 l/m 2 min 0 min 396 W/m 29,0 km/h (5 Bft) 97,87 %
31.10.2020 13:42 17,3 C 20,6 C 15,0 C 71 % 1017,3 hPa 0,0 l/m 2 min 0 min 391 W/m 29,0 km/h (5 Bft) 100,00 %
31.10.2020 13:44 17,3 C 20,6 C 15,0 C 71 % 1017,3 hPa 0,0 l/m 2 min 0 min 388 W/m 25,7 km/h (4 Bft) 100,00 %
31.10.2020 13:46 17,4 C 21,1 C 15,0 C 71 % 1017,3 hPa 0,0 l/m 2 min 0 min 387 W/m 22,5 km/h (4 Bft) 100,00 %
31.10.2020 13:48 17,4 C 21,1 C 15,6 C 72 % 1017,1 hPa 0,0 l/m 2 min 0 min 386 W/m 25,7 km/h (4 Bft) 96,43 %
31.10.2020 13:50 17,4 C 21,1 C 15,6 C 72 % 1017,1 hPa 0,0 l/m 2 min 0 min 385 W/m 25,7 km/h (4 Bft) 95,74 %
31.10.2020 13:52 17,4 C 21,1 C 15,0 C 71 % 1017,0 hPa 0,0 l/m 2 min 0 min 382 W/m 32,2 km/h (5 Bft) 95,74 %
31.10.2020 13:54 17,5 C 20,6 C 15,0 C 71 % 1017,0 hPa 0,0 l/m 2 min 0 min 380 W/m 29,0 km/h (5 Bft) 97,87 %
31.10.2020 13:56 17,5 C 20,6 C 15,0 C 71 % 1017,0 hPa 0,0 l/m 2 min 0 min 378 W/m 25,7 km/h (4 Bft) 97,83 %
31.10.2020 13:58 17,5 C 21,1 C 15,0 C 71 % 1017,0 hPa 0,0 l/m 2 min 0 min 374 W/m 19,3 km/h (3 Bft) 95,74 %
31.10.2020 14:00 17,5 C 20,6 C 15,0 C 71 % 1016,9 hPa 0,0 l/m 2 min 0 min 372 W/m 25,7 km/h (4 Bft) 97,87 %
31.10.2020 14:02 17,5 C 21,1 C 15,0 C 71 % 1016,9 hPa 0,0 l/m 2 min 0 min 369 W/m 12,9 km/h (3 Bft) 97,22 %
31.10.2020 14:04 17,5 C 21,1 C 15,0 C 71 % 1016,9 hPa 0,0 l/m 2 min 0 min 366 W/m 29,0 km/h (5 Bft) 97,56 %
31.10.2020 14:06 17,6 C 21,1 C 15,0 C 71 % 1016,8 hPa 0,0 l/m 2 min 0 min 363 W/m 38,6 km/h (5 Bft) 97,92 %
31.10.2020 14:08 17,6 C 21,1 C 15,0 C 71 % 1016,8 hPa 0,0 l/m 2 min 0 min 360 W/m 29,0 km/h (5 Bft) 98,31 %
31.10.2020 14:10 17,6 C 20,6 C 15,0 C 70 % 1016,8 hPa 0,0 l/m 2 min 0 min 357 W/m 35,4 km/h (5 Bft) 97,14 %
31.10.2020 14:12 17,6 C 21,1 C 15,0 C 70 % 1016,7 hPa 0,0 l/m 2 min 0 min 353 W/m 22,5 km/h (4 Bft) 97,87 %
31.10.2020 14:14 17,7 C 21,1 C 15,0 C 71 % 1016,7 hPa 0,0 l/m 2 min 0 min 350 W/m 29,0 km/h (5 Bft) 93,75 %
31.10.2020 14:16 17,7 C 21,1 C 15,0 C 70 % 1016,7 hPa 0,0 l/m 2 min 0 min 348 W/m 25,7 km/h (4 Bft) 93,48 %
31.10.2020 14:18 17,7 C 20,6 C 15,0 C 70 % 1016,7 hPa 0,0 l/m 2 min 0 min 345 W/m 29,0 km/h (5 Bft) 97,87 %
31.10.2020 14:20 17,8 C 20,6 C 15,0 C 71 % 1016,7 hPa 0,0 l/m 2 min 0 min 341 W/m 25,7 km/h (4 Bft) 95,74 %
31.10.2020 14:22 17,7 C 20,0 C 15,0 C 70 % 1016,5 hPa 0,0 l/m 2 min 0 min 338 W/m 22,5 km/h (4 Bft) 95,74 %
31.10.2020 14:24 17,8 C 20,0 C 14,5 C 70 % 1016,3 hPa 0,0 l/m 2 min 0 min 336 W/m 29,0 km/h (5 Bft) 95,83 %
31.10.2020 14:26 17,7 C 20,0 C 14,5 C 70 % 1016,3 hPa 0,0 l/m 2 min 0 min 332 W/m 32,2 km/h (5 Bft) 95,74 %
31.10.2020 14:28 17,7 C 20,0 C 14,5 C 70 % 1016,3 hPa 0,0 l/m 2 min 0 min 328 W/m 22,5 km/h (4 Bft) 97,83 %
31.10.2020 14:30 17,6 C 20,6 C 14,5 C 70 % 1016,3 hPa 0,0 l/m 2 min 0 min 325 W/m 16,1 km/h (3 Bft) 95,74 %
31.10.2020 14:32 17,6 C 20,6 C 14,5 C 70 % 1016,2 hPa 0,0 l/m 2 min 0 min 323 W/m 22,5 km/h (4 Bft) 95,74 %
31.10.2020 14:34 17,6 C 20,6 C 14,5 C 71 % 1016,2 hPa 0,0 l/m 2 min 0 min 320 W/m 25,7 km/h (4 Bft) 97,87 %
31.10.2020 14:36 17,7 C 20,6 C 14,5 C 71 % 1016,2 hPa 0,0 l/m 2 min 0 min 315 W/m 19,3 km/h (3 Bft) 97,87 %
31.10.2020 14:38 17,7 C 20,6 C 14,5 C 71 % 1016,1 hPa 0,0 l/m 2 min 0 min 311 W/m 22,5 km/h (4 Bft) 96,55 %
31.10.2020 14:40 17,7 C 20,6 C 14,5 C 71 % 1016,1 hPa 0,0 l/m 2 min 0 min 307 W/m 22,5 km/h (4 Bft) 97,14 %
31.10.2020 14:42 17,7 C 20,6 C 14,5 C 71 % 1016,0 hPa 0,0 l/m 2 min 0 min 303 W/m 22,5 km/h (4 Bft) 97,87 %
31.10.2020 14:44 17,8 C 20,6 C 14,5 C 71 % 1016,1 hPa 0,0 l/m 2 min 0 min 300 W/m 22,5 km/h (4 Bft) 96,61 %
31.10.2020 14:46 17,7 C 20,6 C 14,5 C 71 % 1016,1 hPa 0,0 l/m 2 min 0 min 295 W/m 22,5 km/h (4 Bft) 94,59 %
31.10.2020 14:48 17,8 C 20,6 C 14,5 C 71 % 1016,1 hPa 0,0 l/m 2 min 0 min 293 W/m 19,3 km/h (3 Bft) 97,87 %
31.10.2020 14:50 17,7 C 20,6 C 14,5 C 71 % 1016,0 hPa 0,0 l/m 2 min 0 min 291 W/m 19,3 km/h (3 Bft) 97,87 %
31.10.2020 14:52 17,7 C 20,6 C 15,0 C 71 % 1016,1 hPa 0,0 l/m 2 min 0 min 283 W/m 19,3 km/h (3 Bft) 97,87 %
31.10.2020 14:54 17,7 C 20,0 C 14,5 C 71 % 1016,0 hPa 0,0 l/m 2 min 0 min 239 W/m 16,1 km/h (3 Bft) 97,92 %
31.10.2020 14:56 17,7 C 18,9 C 14,5 C 71 % 1016,0 hPa 0,0 l/m 2 min 0 min 203 W/m 22,5 km/h (4 Bft) 95,74 %
31.10.2020 14:58 17,7 C 17,8 C 14,5 C 71 % 1016,0 hPa 0,0 l/m 0 min 0 min 94 W/m 22,5 km/h (4 Bft) 95,74 %
31.10.2020 15:00 17,6 C 17,2 C 14,5 C 71 % 1016,1 hPa 0,0 l/m 0 min 0 min 78 W/m 22,5 km/h (4 Bft) 95,74 %
31.10.2020 15:02 17,6 C 18,3 C 14,5 C 71 % 1016,1 hPa 0,0 l/m 0 min 0 min 81 W/m 22,5 km/h (4 Bft) 95,83 %
31.10.2020 15:04 17,5 C 18,9 C 14,5 C 71 % 1016,1 hPa 0,0 l/m 2 min 0 min 286 W/m 22,5 km/h (4 Bft) 93,62 %
31.10.2020 15:06 17,5 C 17,8 C 14,5 C 71 % 1016,0 hPa 0,0 l/m 0 min 0 min 126 W/m 19,3 km/h (3 Bft) 95,65 %
31.10.2020 15:08 17,5 C 17,2 C 14,5 C 71 % 1015,9 hPa 0,0 l/m 0 min 0 min 100 W/m 22,5 km/h (4 Bft) 95,74 %
31.10.2020 15:10 17,4 C 16,7 C 14,5 C 72 % 1015,8 hPa 0,0 l/m 0 min 0 min 100 W/m 25,7 km/h (4 Bft) 95,74 %
31.10.2020 15:12 17,4 C 16,7 C 14,5 C 71 % 1015,8 hPa 0,0 l/m 0 min 0 min 98 W/m 19,3 km/h (3 Bft) 93,62 %
31.10.2020 15:14 17,3 C 16,7 C 14,5 C 71 % 1015,7 hPa 0,0 l/m 0 min 0 min 92 W/m 16,1 km/h (3 Bft) 95,74 %
31.10.2020 15:16 17,3 C 16,1 C 14,5 C 72 % 1015,7 hPa 0,0 l/m 0 min 0 min 84 W/m 19,3 km/h (3 Bft) 95,74 %
31.10.2020 15:18 17,3 C 16,1 C 14,5 C 72 % 1015,9 hPa 0,0 l/m 0 min 0 min 77 W/m 16,1 km/h (3 Bft) 93,62 %
31.10.2020 15:20 17,2 C 16,1 C 14,5 C 72 % 1015,9 hPa 0,0 l/m 0 min 0 min 72 W/m 16,1 km/h (3 Bft) 95,65 %
31.10.2020 15:22 17,1 C 16,1 C 13,9 C 72 % 1015,9 hPa 0,0 l/m 0 min 0 min 69 W/m 29,0 km/h (5 Bft) 95,74 %
31.10.2020 15:24 17,1 C 16,1 C 14,5 C 72 % 1015,8 hPa 0,0 l/m 0 min 0 min 69 W/m 25,7 km/h (4 Bft) 97,87 %
31.10.2020 15:26 17,0 C 16,1 C 14,5 C 72 % 1015,7 hPa 0,0 l/m 0 min 0 min 69 W/m 16,1 km/h (3 Bft) 97,87 %
31.10.2020 15:28 17,0 C 16,1 C 14,5 C 72 % 1015,7 hPa 0,0 l/m 0 min 0 min 70 W/m 16,1 km/h (3 Bft) 97,87 %
31.10.2020 15:30 16,9 C 16,1 C 13,9 C 72 % 1015,7 hPa 0,0 l/m 0 min 0 min 73 W/m 22,5 km/h (4 Bft) 97,83 %
31.10.2020 15:32 16,9 C 16,1 C 13,9 C 72 % 1015,8 hPa 0,0 l/m 0 min 0 min 76 W/m 19,3 km/h (3 Bft) 97,92 %
31.10.2020 15:34 16,8 C 16,1 C 14,5 C 73 % 1015,7 hPa 0,0 l/m 0 min 0 min 81 W/m 19,3 km/h (3 Bft) 97,87 %
31.10.2020 15:36 16,8 C 16,1 C 14,5 C 73 % 1015,7 hPa 0,0 l/m 0 min 0 min 89 W/m 19,3 km/h (3 Bft) 97,87 %
31.10.2020 15:38 16,8 C 16,1 C 14,5 C 73 % 1015,7 hPa 0,0 l/m 2 min 0 min 98 W/m 19,3 km/h (3 Bft) 97,87 %
31.10.2020 15:40 16,8 C 16,1 C 14,5 C 73 % 1015,7 hPa 0,0 l/m 2 min 0 min 104 W/m 32,2 km/h (5 Bft) 100,00 %
31.10.2020 15:42 16,7 C 16,1 C 14,5 C 73 % 1015,8 hPa 0,0 l/m 2 min 0 min 104 W/m 22,5 km/h (4 Bft) 100,00 %
31.10.2020 15:44 16,7 C 16,1 C 14,5 C 73 % 1015,9 hPa 0,0 l/m 2 min 0 min 98 W/m 16,1 km/h (3 Bft) 100,00 %
31.10.2020 15:46 16,6 C 16,1 C 14,5 C 73 % 1015,8 hPa 0,0 l/m 2 min 0 min 91 W/m 12,9 km/h (3 Bft) 100,00 %
31.10.2020 15:48 16,6 C 16,1 C 14,5 C 73 % 1015,8 hPa 0,0 l/m 0 min 0 min 84 W/m 12,9 km/h (3 Bft) 94,87 %
31.10.2020 15:50 16,6 C 16,1 C 14,5 C 73 % 1015,8 hPa 0,0 l/m 0 min 0 min 77 W/m 12,9 km/h (3 Bft) 100,00 %
31.10.2020 15:52 16,6 C 16,1 C 14,5 C 74 % 1015,7 hPa 0,0 l/m 0 min 0 min 70 W/m 19,3 km/h (3 Bft) 100,00 %
31.10.2020 15:54 16,6 C 16,1 C 14,5 C 73 % 1015,6 hPa 0,0 l/m 0 min 0 min 67 W/m 12,9 km/h (3 Bft) 100,00 %
31.10.2020 15:56 16,6 C 16,1 C 13,9 C 74 % 1015,7 hPa 0,0 l/m 0 min 0 min 64 W/m 16,1 km/h (3 Bft) 100,00 %
31.10.2020 15:58 16,5 C 16,1 C 13,9 C 74 % 1015,6 hPa 0,0 l/m 0 min 0 min 63 W/m 22,5 km/h (4 Bft) 97,87 %
31.10.2020 16:00 16,5 C 15,6 C 13,9 C 74 % 1015,5 hPa 0,0 l/m 0 min 0 min 65 W/m 19,3 km/h (3 Bft) 100,00 %
31.10.2020 16:02 16,5 C 15,6 C 13,9 C 74 % 1015,5 hPa 0,0 l/m 0 min 0 min 68 W/m 16,1 km/h (3 Bft) 97,87 %
31.10.2020 16:04 16,5 C 15,6 C 13,9 C 74 % 1015,5 hPa 0,0 l/m 2 min 0 min 71 W/m 19,3 km/h (3 Bft) 100,00 %
31.10.2020 16:06 16,5 C 15,6 C 13,9 C 74 % 1015,4 hPa 0,0 l/m 2 min 0 min 75 W/m 12,9 km/h (3 Bft) 100,00 %
31.10.2020 16:08 16,5 C 15,6 C 13,9 C 74 % 1015,3 hPa 0,0 l/m 2 min 0 min 70 W/m 16,1 km/h (3 Bft) 100,00 %
31.10.2020 16:10 16,4 C 15,6 C 13,9 C 74 % 1015,3 hPa 0,0 l/m 0 min 0 min 60 W/m 19,3 km/h (3 Bft) 100,00 %
31.10.2020 16:12 16,4 C 15,6 C 13,9 C 74 % 1015,4 hPa 0,0 l/m 0 min 0 min 46 W/m 16,1 km/h (3 Bft) 100,00 %
31.10.2020 16:14 16,4 C 15,6 C 13,9 C 74 % 1015,4 hPa 0,0 l/m 0 min 0 min 36 W/m 16,1 km/h (3 Bft) 100,00 %
31.10.2020 16:16 16,4 C 15,6 C 13,9 C 74 % 1015,4 hPa 0,0 l/m 0 min 0 min 30 W/m 16,1 km/h (3 Bft) 100,00 %
31.10.2020 16:18 16,3 C 15,0 C 13,9 C 74 % 1015,4 hPa 0,0 l/m 0 min 0 min 28 W/m 22,5 km/h (4 Bft) 97,87 %
31.10.2020 16:20 16,3 C 15,0 C 13,4 C 74 % 1015,4 hPa 0,0 l/m 0 min 0 min 28 W/m 16,1 km/h (3 Bft) 100,00 %
31.10.2020 16:22 16,3 C 15,0 C 13,4 C 74 % 1015,3 hPa 0,0 l/m 0 min 0 min 32 W/m 25,7 km/h (4 Bft) 100,00 %
31.10.2020 16:24 16,2 C 15,0 C 13,4 C 74 % 1015,3 hPa 0,0 l/m 0 min 0 min 36 W/m 12,9 km/h (3 Bft) 100,00 %
31.10.2020 16:26 16,1 C 15,0 C 13,4 C 74 % 1015,3 hPa 0,0 l/m 0 min 0 min 41 W/m 12,9 km/h (3 Bft) 100,00 %
31.10.2020 16:28 16,1 C 15,0 C 13,4 C 74 % 1015,3 hPa 0,0 l/m 2 min 0 min 46 W/m 12,9 km/h (3 Bft) 97,87 %
31.10.2020 16:30 16,1 C 15,0 C 13,4 C 74 % 1015,2 hPa 0,0 l/m 2 min 0 min 50 W/m 19,3 km/h (3 Bft) 97,87 %
31.10.2020 16:32 16,1 C 15,0 C 13,4 C 75 % 1015,1 hPa 0,0 l/m 2 min 0 min 49 W/m 16,1 km/h (3 Bft) 95,83 %
31.10.2020 16:34 16,0 C 15,0 C 13,4 C 75 % 1014,9 hPa 0,0 l/m 2 min 0 min 42 W/m 19,3 km/h (3 Bft) 95,74 %
31.10.2020 16:36 16,0 C 15,0 C 13,4 C 75 % 1015,0 hPa 0,0 l/m 0 min 0 min 32 W/m 19,3 km/h (3 Bft) 97,87 %
31.10.2020 16:38 16,0 C 15,0 C 13,4 C 75 % 1015,0 hPa 0,0 l/m 0 min 0 min 24 W/m 16,1 km/h (3 Bft) 97,87 %
31.10.2020 16:40 16,0 C 15,0 C 13,4 C 75 % 1015,1 hPa 0,0 l/m 0 min 0 min 19 W/m 16,1 km/h (3 Bft) 97,83 %
31.10.2020 16:42 15,9 C 14,4 C 13,4 C 75 % 1015,1 hPa 0,0 l/m 0 min 0 min 15 W/m 19,3 km/h (3 Bft) 97,87 %
31.10.2020 16:44 15,9 C 14,4 C 13,4 C 75 % 1015,0 hPa 0,0 l/m 0 min 0 min 13 W/m 16,1 km/h (3 Bft) 97,87 %
31.10.2020 16:46 15,9 C 14,4 C 13,4 C 75 % 1015,0 hPa 0,0 l/m 0 min 0 min 12 W/m 22,5 km/h (4 Bft) 97,87 %
31.10.2020 16:48 15,8 C 14,4 C 13,4 C 75 % 1014,9 hPa 0,0 l/m 0 min 0 min 12 W/m 19,3 km/h (3 Bft) 95,74 %
31.10.2020 16:50 15,8 C 14,4 C 13,4 C 75 % 1014,9 hPa 0,0 l/m 0 min 0 min 12 W/m 16,1 km/h (3 Bft) 97,78 %
31.10.2020 16:52 15,8 C 14,4 C 12,8 C 75 % 1015,0 hPa 0,0 l/m 0 min 0 min 12 W/m 6,4 km/h (2 Bft) 95,65 %
31.10.2020 16:54 15,7 C 14,4 C 12,8 C 76 % 1015,0 hPa 0,0 l/m 0 min 0 min 12 W/m 12,9 km/h (3 Bft) 97,87 %
31.10.2020 16:56 15,7 C 14,4 C 12,8 C 76 % 1015,0 hPa 0,0 l/m 0 min 0 min 11 W/m 6,4 km/h (2 Bft) 97,87 %
31.10.2020 16:58 15,6 C 14,4 C 12,8 C 76 % 1015,0 hPa 0,0 l/m 0 min 0 min 8 W/m 6,4 km/h (2 Bft) 95,74 %
31.10.2020 17:00 15,6 C 14,4 C 12,8 C 76 % 1015,0 hPa 0,0 l/m 0 min 0 min 5 W/m 16,1 km/h (3 Bft) 97,87 %
31.10.2020 17:02 15,6 C 14,4 C 12,8 C 76 % 1015,0 hPa 0,0 l/m 0 min 0 min 4 W/m 16,1 km/h (3 Bft) 97,92 %
31.10.2020 17:04 15,5 C 14,4 C 12,8 C 76 % 1015,0 hPa 0,0 l/m 0 min 0 min 0 W/m 16,1 km/h (3 Bft) 97,83 %
31.10.2020 17:06 15,5 C 14,4 C 12,8 C 76 % 1015,0 hPa 0,0 l/m 0 min 0 min 0 W/m 16,1 km/h (3 Bft) 95,74 %
31.10.2020 17:08 15,5 C 14,4 C 12,8 C 76 % 1015,0 hPa 0,0 l/m 0 min 0 min 0 W/m 12,9 km/h (3 Bft) 93,62 %
31.10.2020 17:10 15,5 C 14,4 C 12,8 C 76 % 1015,0 hPa 0,0 l/m 0 min 0 min 0 W/m 19,3 km/h (3 Bft) 97,87 %
31.10.2020 17:12 15,4 C 13,9 C 12,8 C 77 % 1015,0 hPa 0,0 l/m 0 min 0 min 0 W/m 12,9 km/h (3 Bft) 95,74 %
31.10.2020 17:14 15,4 C 13,9 C 12,8 C 76 % 1015,0 hPa 0,0 l/m 0 min 0 min 0 W/m 12,9 km/h (3 Bft) 97,56 %
31.10.2020 17:16 15,4 C 13,9 C 12,8 C 77 % 1015,0 hPa 0,0 l/m 0 min 0 min 0 W/m 16,1 km/h (3 Bft) 100,00 %
31.10.2020 17:18 15,3 C 13,9 C 12,2 C 77 % 1014,9 hPa 0,0 l/m 0 min 0 min 0 W/m 12,9 km/h (3 Bft) 100,00 %
31.10.2020 17:20 15,3 C 13,9 C 12,2 C 77 % 1014,9 hPa 0,0 l/m 0 min 0 min 0 W/m 6,4 km/h (2 Bft) 97,87 %
31.10.2020 17:22 15,3 C 13,9 C 12,2 C 77 % 1014,9 hPa 0,0 l/m 0 min 0 min 0 W/m 12,9 km/h (3 Bft) 97,83 %
31.10.2020 17:24 15,2 C 13,9 C 12,2 C 77 % 1014,9 hPa 0,0 l/m 0 min 0 min 0 W/m 16,1 km/h (3 Bft) 97,92 %
31.10.2020 17:26 15,2 C 13,9 C 12,2 C 77 % 1014,9 hPa 0,0 l/m 0 min 0 min 0 W/m 9,7 km/h (2 Bft) 97,87 %
31.10.2020 17:28 15,1 C 13,9 C 12,2 C 78 % 1014,8 hPa 0,0 l/m 0 min 0 min 0 W/m 16,1 km/h (3 Bft) 95,74 %
31.10.2020 17:30 15,1 C 13,9 C 12,2 C 78 % 1014,7 hPa 0,0 l/m 0 min 0 min 0 W/m 22,5 km/h (4 Bft) 93,62 %
31.10.2020 17:32 15,1 C 13,9 C 12,2 C 77 % 1014,8 hPa 0,0 l/m 0 min 0 min 0 W/m 19,3 km/h (3 Bft) 95,74 %
31.10.2020 17:34 15,0 C 13,9 C 12,2 C 78 % 1014,7 hPa 0,0 l/m 0 min 0 min 0 W/m 25,7 km/h (4 Bft) 97,83 %
31.10.2020 17:36 15,0 C 13,9 C 12,8 C 78 % 1014,7 hPa 0,0 l/m 0 min 0 min 0 W/m 12,9 km/h (3 Bft) 97,87 %
31.10.2020 17:38 15,0 C 13,9 C 12,8 C 78 % 1014,7 hPa 0,0 l/m 0 min 0 min 0 W/m 16,1 km/h (3 Bft) 97,87 %
31.10.2020 17:40 15,0 C 13,9 C 12,8 C 78 % 1014,7 hPa 0,0 l/m 0 min 0 min 0 W/m 19,3 km/h (3 Bft) 97,87 %
31.10.2020 17:42 15,0 C 13,9 C 12,8 C 78 % 1014,7 hPa 0,0 l/m 0 min 0 min 0 W/m 19,3 km/h (3 Bft) 97,87 %
31.10.2020 17:44 14,9 C 13,9 C 12,2 C 78 % 1014,7 hPa 0,0 l/m 0 min 0 min 0 W/m 6,4 km/h (2 Bft) 97,92 %
31.10.2020 17:46 14,9 C 13,9 C 12,2 C 78 % 1014,7 hPa 0,0 l/m 0 min 0 min 0 W/m 6,4 km/h (2 Bft) 97,83 %
31.10.2020 17:48 14,9 C 13,9 C 12,2 C 78 % 1014,8 hPa 0,0 l/m 0 min 0 min 0 W/m 12,9 km/h (3 Bft) 97,87 %
31.10.2020 17:50 14,9 C 13,9 C 12,2 C 78 % 1014,8 hPa 0,0 l/m 0 min 0 min 0 W/m 19,3 km/h (3 Bft) 97,87 %
31.10.2020 17:52 14,9 C 13,9 C 12,2 C 78 % 1014,9 hPa 0,0 l/m 0 min 0 min 0 W/m 12,9 km/h (3 Bft) 97,87 %
31.10.2020 17:54 14,8 C 13,9 C 12,2 C 78 % 1014,8 hPa 0,0 l/m 0 min 0 min 0 W/m 12,9 km/h (3 Bft) 97,87 %
31.10.2020 17:56 14,8 C 13,9 C 12,2 C 79 % 1014,7 hPa 0,0 l/m 0 min 0 min 0 W/m 16,1 km/h (3 Bft) 97,87 %
31.10.2020 17:58 14,8 C 13,9 C 12,2 C 79 % 1014,7 hPa 0,0 l/m 0 min 0 min 0 W/m 12,9 km/h (3 Bft) 97,83 %
31.10.2020 18:00 14,8 C 13,9 C 12,2 C 79 % 1014,6 hPa 0,0 l/m 0 min 0 min 0 W/m 12,9 km/h (3 Bft) 95,83 %
31.10.2020 18:02 14,7 C 13,9 C 12,2 C 79 % 1014,5 hPa 0,0 l/m 0 min 0 min 0 W/m 16,1 km/h (3 Bft) 97,87 %
31.10.2020 18:04 14,7 C 13,9 C 12,2 C 79 % 1014,6 hPa 0,0 l/m 0 min 0 min 0 W/m 16,1 km/h (3 Bft) 96,00 %
31.10.2020 18:08 14,6 C 13,9 C 12,2 C 79 % 1014,8 hPa 0,0 l/m 0 min 0 min 0 W/m 16,1 km/h (3 Bft) 97,87 %
31.10.2020 18:10 14,6 C 13,9 C 12,2 C 79 % 1014,7 hPa 0,0 l/m 0 min 0 min 0 W/m 12,9 km/h (3 Bft) 97,87 %
31.10.2020 18:12 14,6 C 13,9 C 12,2 C 79 % 1014,8 hPa 0,0 l/m 0 min 0 min 0 W/m 19,3 km/h (3 Bft) 100,00 %
31.10.2020 18:14 14,6 C 13,9 C 12,2 C 79 % 1014,8 hPa 0,0 l/m 0 min 0 min 0 W/m 16,1 km/h (3 Bft) 100,00 %
31.10.2020 18:16 14,6 C 13,9 C 12,2 C 79 % 1014,7 hPa 0,0 l/m 0 min 0 min 0 W/m 16,1 km/h (3 Bft) 100,00 %
31.10.2020 18:18 14,6 C 13,9 C 12,2 C 79 % 1014,7 hPa 0,0 l/m 0 min 0 min 0 W/m 12,9 km/h (3 Bft) 100,00 %
31.10.2020 18:20 14,5 C 13,9 C 12,2 C 80 % 1014,7 hPa 0,0 l/m 0 min 0 min 0 W/m 19,3 km/h (3 Bft) 97,92 %
31.10.2020 18:22 14,5 C 13,9 C 12,2 C 80 % 1014,7 hPa 0,0 l/m 0 min 0 min 0 W/m 12,9 km/h (3 Bft) 97,87 %
31.10.2020 18:24 14,5 C 13,9 C 12,2 C 80 % 1014,6 hPa 0,0 l/m 0 min 0 min 0 W/m 16,1 km/h (3 Bft) 97,87 %
31.10.2020 18:26 14,5 C 13,9 C 12,2 C 80 % 1014,6 hPa 0,0 l/m 0 min 0 min 0 W/m 12,9 km/h (3 Bft) 97,83 %
31.10.2020 18:28 14,5 C 13,9 C 12,2 C 80 % 1014,6 hPa 0,0 l/m 0 min 0 min 0 W/m 9,7 km/h (2 Bft) 97,87 %
31.10.2020 18:30 14,5 C 13,9 C 12,2 C 80 % 1014,6 hPa 0,0 l/m 0 min 0 min 0 W/m 12,9 km/h (3 Bft) 97,87 %
31.10.2020 18:32 14,5 C 13,9 C 12,2 C 80 % 1014,5 hPa 0,0 l/m 0 min 0 min 0 W/m 16,1 km/h (3 Bft) 95,74 %
31.10.2020 18:34 14,5 C 13,9 C 12,2 C 80 % 1014,5 hPa 0,0 l/m 0 min 0 min 0 W/m 16,1 km/h (3 Bft) 97,87 %
31.10.2020 18:36 14,5 C 13,9 C 12,2 C 80 % 1014,6 hPa 0,0 l/m 0 min 0 min 0 W/m 12,9 km/h (3 Bft) 97,87 %
31.10.2020 18:38 14,5 C 13,9 C 12,2 C 80 % 1014,5 hPa 0,0 l/m 0 min 0 min 0 W/m 12,9 km/h (3 Bft) 97,83 %
31.10.2020 18:40 14,5 C 13,9 C 12,2 C 80 % 1014,4 hPa 0,0 l/m 0 min 0 min 0 W/m 16,1 km/h (3 Bft) 95,74 %
31.10.2020 18:42 14,5 C 13,9 C 12,2 C 80 % 1014,4 hPa 0,0 l/m 0 min 0 min 0 W/m 12,9 km/h (3 Bft) 95,74 %
31.10.2020 18:44 14,5 C 13,9 C 12,2 C 80 % 1014,5 hPa 0,0 l/m 0 min 0 min 0 W/m 12,9 km/h (3 Bft) 97,87 %
31.10.2020 18:46 14,5 C 13,9 C 12,2 C 80 % 1014,5 hPa 0,0 l/m 0 min 0 min 0 W/m 12,9 km/h (3 Bft) 97,87 %
31.10.2020 18:48 14,5 C 13,9 C 12,2 C 80 % 1014,6 hPa 0,0 l/m 0 min 0 min 0 W/m 16,1 km/h (3 Bft) 97,83 %
31.10.2020 18:50 14,5 C 13,9 C 12,2 C 80 % 1014,6 hPa 0,0 l/m 0 min 0 min 0 W/m 19,3 km/h (3 Bft) 97,87 %
31.10.2020 18:52 14,5 C 13,9 C 12,8 C 80 % 1014,6 hPa 0,0 l/m 0 min 0 min 0 W/m 3,2 km/h (1 Bft) 95,74 %
31.10.2020 18:54 14,5 C 13,9 C 12,8 C 80 % 1014,6 hPa 0,0 l/m 0 min 0 min 0 W/m 12,9 km/h (3 Bft) 97,87 %
31.10.2020 18:56 14,5 C 13,9 C 12,8 C 80 % 1014,5 hPa 0,0 l/m 0 min 0 min 0 W/m 16,1 km/h (3 Bft) 98,04 %
31.10.2020 18:58 14,5 C 13,9 C 12,8 C 80 % 1014,4 hPa 0,0 l/m 0 min 0 min 0 W/m 12,9 km/h (3 Bft) 97,87 %
31.10.2020 19:00 14,5 C 13,9 C 12,8 C 80 % 1014,4 hPa 0,0 l/m 0 min 0 min 0 W/m 12,9 km/h (3 Bft) 97,87 %
31.10.2020 19:02 14,5 C 13,9 C 12,8 C 81 % 1014,4 hPa 0,0 l/m 0 min 0 min 0 W/m 22,5 km/h (4 Bft) 97,92 %
31.10.2020 19:04 14,6 C 13,9 C 12,8 C 80 % 1014,4 hPa 0,0 l/m 0 min 0 min 0 W/m 19,3 km/h (3 Bft) 95,74 %
31.10.2020 19:06 14,6 C 13,9 C 12,8 C 80 % 1014,3 hPa 0,0 l/m 0 min 0 min 0 W/m 22,5 km/h (4 Bft) 97,87 %
31.10.2020 19:08 14,6 C 13,9 C 12,8 C 80 % 1014,3 hPa 0,0 l/m 0 min 0 min 0 W/m 16,1 km/h (3 Bft) 97,87 %
31.10.2020 19:10 14,6 C 13,3 C 12,2 C 80 % 1014,3 hPa 0,0 l/m 0 min 0 min 0 W/m 22,5 km/h (4 Bft) 97,83 %
31.10.2020 19:12 14,6 C 13,3 C 12,2 C 80 % 1014,2 hPa 0,0 l/m 0 min 0 min 0 W/m 22,5 km/h (4 Bft) 97,87 %
31.10.2020 19:14 14,6 C 13,9 C 12,2 C 80 % 1014,2 hPa 0,0 l/m 0 min 0 min 0 W/m 16,1 km/h (3 Bft) 97,87 %
31.10.2020 19:16 14,6 C 13,9 C 12,2 C 80 % 1014,3 hPa 0,0 l/m 0 min 0 min 0 W/m 19,3 km/h (3 Bft) 95,74 %
31.10.2020 19:18 14,7 C 13,9 C 12,8 C 80 % 1014,3 hPa 0,0 l/m 0 min 0 min 0 W/m 12,9 km/h (3 Bft) 95,74 %
31.10.2020 19:20 14,7 C 13,9 C 12,8 C 81 % 1014,3 hPa 0,0 l/m 0 min 0 min 0 W/m 16,1 km/h (3 Bft) 95,74 %
31.10.2020 19:22 14,7 C 13,3 C 11,7 C 81 % 1014,3 hPa 0,0 l/m 0 min 2 min 0 W/m 16,1 km/h (3 Bft) 95,65 %
31.10.2020 19:24 14,8 C 12,8 C 11,1 C 81 % 1014,3 hPa 0,0 l/m 0 min 2 min 0 W/m 19,3 km/h (3 Bft) 97,87 %
31.10.2020 19:26 14,8 C 12,2 C 10,6 C 82 % 1014,1 hPa 0,0 l/m 0 min 2 min 0 W/m 16,1 km/h (3 Bft) 97,87 %
31.10.2020 19:28 14,8 C 11,7 C 10,6 C 82 % 1013,9 hPa 0,0 l/m 0 min 2 min 0 W/m 19,3 km/h (3 Bft) 97,87 %
31.10.2020 19:30 14,8 C 11,7 C 10,6 C 82 % 1013,8 hPa 0,0 l/m 0 min 2 min 0 W/m 19,3 km/h (3 Bft) 95,74 %
31.10.2020 19:32 14,7 C 12,2 C 10,6 C 83 % 1013,9 hPa 0,0 l/m 0 min 0 min 0 W/m 12,9 km/h (3 Bft) 97,83 %
31.10.2020 19:34 14,7 C 12,2 C 10,6 C 83 % 1013,8 hPa 0,0 l/m 0 min 2 min 0 W/m 16,1 km/h (3 Bft) 97,87 %
31.10.2020 19:36 14,6 C 12,2 C 10,6 C 83 % 1014,0 hPa 0,0 l/m 0 min 0 min 0 W/m 16,1 km/h (3 Bft) 97,87 %
31.10.2020 19:38 14,6 C 12,2 C 10,6 C 83 % 1014,1 hPa 0,0 l/m 0 min 2 min 0 W/m 12,9 km/h (3 Bft) 95,74 %
31.10.2020 19:40 14,6 C 12,2 C 10,6 C 83 % 1014,1 hPa 0,0 l/m 0 min 2 min 0 W/m 16,1 km/h (3 Bft) 95,74 %
31.10.2020 19:42 14,6 C 12,2 C 10,6 C 84 % 1014,1 hPa 0,0 l/m 0 min 0 min 0 W/m 12,9 km/h (3 Bft) 97,87 %
31.10.2020 19:44 14,6 C 12,2 C 10,6 C 84 % 1014,1 hPa 0,0 l/m 0 min 0 min 0 W/m 12,9 km/h (3 Bft) 97,56 %
31.10.2020 19:46 14,5 C 12,2 C 10,6 C 84 % 1014,1 hPa 0,0 l/m 0 min 0 min 0 W/m 12,9 km/h (3 Bft) 97,87 %
31.10.2020 19:48 14,5 C 12,2 C 10,6 C 84 % 1014,2 hPa 0,0 l/m 0 min 2 min 0 W/m 6,4 km/h (2 Bft) 95,74 %
31.10.2020 19:50 14,5 C 11,7 C 10,6 C 84 % 1014,3 hPa 0,2 l/m 0 min 2 min 0 W/m 6,4 km/h (2 Bft) 97,87 %
31.10.2020 19:52 14,5 C 11,7 C 10,6 C 84 % 1014,3 hPa 0,0 l/m 0 min 2 min 0 W/m 12,9 km/h (3 Bft) 97,83 %
31.10.2020 19:54 14,5 C 11,7 C 10,6 C 84 % 1014,4 hPa 0,0 l/m 0 min 2 min 0 W/m 9,7 km/h (2 Bft) 97,92 %
31.10.2020 19:56 14,5 C 11,7 C 10,6 C 85 % 1014,4 hPa 0,0 l/m 0 min 2 min 0 W/m 6,4 km/h (2 Bft) 95,74 %
31.10.2020 19:58 14,4 C 11,1 C 10,0 C 85 % 1014,5 hPa 0,2 l/m 0 min 2 min 0 W/m 6,4 km/h (2 Bft) 91,49 %
31.10.2020 20:00 14,4 C 11,7 C 10,6 C 85 % 1014,5 hPa 0,0 l/m 0 min 2 min 0 W/m 3,2 km/h (1 Bft) 97,87 %
31.10.2020 20:02 14,4 C 11,7 C 10,6 C 85 % 1014,5 hPa 0,0 l/m 0 min 2 min 0 W/m 9,7 km/h (2 Bft) 97,87 %
31.10.2020 20:04 14,4 C 11,1 C 10,6 C 85 % 1014,4 hPa 0,2 l/m 0 min 2 min 0 W/m 6,4 km/h (2 Bft) 97,96 %
31.10.2020 20:06 14,3 C 11,1 C 10,6 C 86 % 1014,4 hPa 0,0 l/m 0 min 2 min 0 W/m 6,4 km/h (2 Bft) 95,74 %
31.10.2020 20:08 14,3 C 11,1 C 10,6 C 86 % 1014,4 hPa 0,0 l/m 0 min 2 min 0 W/m 16,1 km/h (3 Bft) 95,74 %
31.10.2020 20:10 14,2 C 11,1 C 10,6 C 86 % 1014,4 hPa 0,0 l/m 0 min 2 min 0 W/m 6,4 km/h (2 Bft) 95,74 %
31.10.2020 20:12 14,2 C 11,1 C 10,6 C 86 % 1014,4 hPa 0,0 l/m 0 min 2 min 0 W/m 12,9 km/h (3 Bft) 97,87 %
31.10.2020 20:14 14,2 C 11,1 C 10,6 C 87 % 1014,3 hPa 0,0 l/m 0 min 0 min 0 W/m 12,9 km/h (3 Bft) 97,87 %
31.10.2020 20:16 14,2 C 11,1 C 10,6 C 87 % 1014,3 hPa 0,0 l/m 0 min 2 min 0 W/m 6,4 km/h (2 Bft) 95,74 %
31.10.2020 20:18 14,2 C 11,7 C 10,6 C 87 % 1014,2 hPa 0,0 l/m 0 min 2 min 0 W/m 12,9 km/h (3 Bft) 97,87 %
31.10.2020 20:20 14,2 C 11,7 C 10,6 C 87 % 1014,2 hPa 0,0 l/m 0 min 0 min 0 W/m 12,9 km/h (3 Bft) 97,87 %
31.10.2020 20:22 14,1 C 11,7 C 10,6 C 88 % 1014,2 hPa 0,0 l/m 0 min 0 min 0 W/m 12,9 km/h (3 Bft) 97,87 %
31.10.2020 20:24 14,1 C 11,7 C 10,6 C 88 % 1014,3 hPa 0,0 l/m 0 min 0 min 0 W/m 12,9 km/h (3 Bft) 95,74 %
31.10.2020 20:26 14,0 C 11,7 C 10,6 C 88 % 1014,3 hPa 0,0 l/m 0 min 2 min 0 W/m 16,1 km/h (3 Bft) 97,87 %
31.10.2020 20:28 14,0 C 11,7 C 10,6 C 88 % 1014,3 hPa 0,2 l/m 0 min 2 min 0 W/m 12,9 km/h (3 Bft) 97,87 %
31.10.2020 20:30 13,9 C 11,7 C 10,6 C 89 % 1014,3 hPa 0,0 l/m 0 min 2 min 0 W/m 6,4 km/h (2 Bft) 97,87 %
31.10.2020 20:32 13,9 C 11,7 C 10,6 C 89 % 1014,4 hPa 0,0 l/m 0 min 2 min 0 W/m 12,9 km/h (3 Bft) 97,83 %
31.10.2020 20:34 13,9 C 11,7 C 10,6 C 89 % 1014,3 hPa 0,0 l/m 0 min 2 min 0 W/m 6,4 km/h (2 Bft) 97,87 %
31.10.2020 20:36 13,9 C 11,7 C 10,6 C 89 % 1014,3 hPa 0,0 l/m 0 min 0 min 0 W/m 16,1 km/h (3 Bft) 97,87 %
31.10.2020 20:38 13,8 C 11,7 C 10,6 C 90 % 1014,3 hPa 0,0 l/m 0 min 0 min 0 W/m 12,9 km/h (3 Bft) 97,87 %
31.10.2020 20:40 13,8 C 11,7 C 10,6 C 90 % 1014,3 hPa 0,0 l/m 0 min 0 min 0 W/m 6,4 km/h (2 Bft) 95,74 %
31.10.2020 20:42 13,8 C 11,7 C 10,6 C 90 % 1014,3 hPa 0,0 l/m 0 min 0 min 0 W/m 16,1 km/h (3 Bft) 97,83 %
31.10.2020 20:44 13,7 C 11,7 C 10,6 C 90 % 1014,3 hPa 0,0 l/m 0 min 0 min 0 W/m 9,7 km/h (2 Bft) 95,74 %
31.10.2020 20:46 13,6 C 11,7 C 10,6 C 90 % 1014,3 hPa 0,0 l/m 0 min 0 min 0 W/m 6,4 km/h (2 Bft) 100,00 %
31.10.2020 20:48 13,6 C 11,7 C 10,6 C 91 % 1014,3 hPa 0,0 l/m 0 min 0 min 0 W/m 12,9 km/h (3 Bft) 100,00 %
31.10.2020 20:50 13,6 C 11,7 C 10,6 C 91 % 1014,3 hPa 0,0 l/m 0 min 0 min 0 W/m 6,4 km/h (2 Bft) 100,00 %
31.10.2020 20:52 13,6 C 11,7 C 10,6 C 91 % 1014,3 hPa 0,0 l/m 0 min 2 min 0 W/m 6,4 km/h (2 Bft) 100,00 %
31.10.2020 20:54 13,6 C 11,7 C 10,6 C 91 % 1014,3 hPa 0,2 l/m 0 min 2 min 0 W/m 3,2 km/h (1 Bft) 100,00 %
31.10.2020 20:56 13,5 C 11,7 C 10,6 C 91 % 1014,2 hPa 0,0 l/m 0 min 2 min 0 W/m 0,0 km/h (0 Bft) 100,00 %
31.10.2020 20:58 13,5 C 11,7 C 10,6 C 92 % 1014,3 hPa 0,0 l/m 0 min 0 min 0 W/m 6,4 km/h (2 Bft) 97,87 %
31.10.2020 21:00 13,5 C 11,7 C 10,6 C 92 % 1014,3 hPa 0,0 l/m 0 min 0 min 0 W/m 16,1 km/h (3 Bft) 100,00 %
31.10.2020 21:02 13,5 C 11,7 C 10,6 C 92 % 1014,3 hPa 0,0 l/m 0 min 0 min 0 W/m 6,4 km/h (2 Bft) 97,87 %
31.10.2020 21:04 13,5 C 11,7 C 10,6 C 92 % 1014,4 hPa 0,0 l/m 0 min 2 min 0 W/m 6,4 km/h (2 Bft) 100,00 %
31.10.2020 21:06 13,5 C 11,7 C 10,6 C 92 % 1014,4 hPa 0,0 l/m 0 min 2 min 0 W/m 16,1 km/h (3 Bft) 100,00 %
31.10.2020 21:08 13,5 C 11,7 C 10,6 C 92 % 1014,5 hPa 0,0 l/m 0 min 2 min 0 W/m 3,2 km/h (1 Bft) 97,87 %
31.10.2020 21:10 13,5 C 11,7 C 10,6 C 92 % 1014,5 hPa 0,0 l/m 0 min 2 min 0 W/m 0,0 km/h (0 Bft) 100,00 %
31.10.2020 21:12 13,5 C 11,7 C 10,6 C 92 % 1014,4 hPa 0,0 l/m 0 min 2 min 0 W/m 6,4 km/h (2 Bft) 100,00 %
31.10.2020 21:14 13,5 C 11,7 C 10,6 C 93 % 1014,4 hPa 0,0 l/m 0 min 2 min 0 W/m 3,2 km/h (1 Bft) 100,00 %
31.10.2020 21:16 13,5 C 11,7 C 10,6 C 93 % 1014,5 hPa 0,0 l/m 0 min 0 min 0 W/m 19,3 km/h (3 Bft) 100,00 %
31.10.2020 21:18 13,5 C 11,7 C 11,1 C 93 % 1014,6 hPa 0,0 l/m 0 min 0 min 0 W/m 19,3 km/h (3 Bft) 100,00 %
31.10.2020 21:20 13,5 C 11,7 C 11,1 C 93 % 1014,6 hPa 0,0 l/m 0 min 0 min 0 W/m 6,4 km/h (2 Bft) 100,00 %
31.10.2020 21:22 13,5 C 11,7 C 11,1 C 93 % 1014,7 hPa 0,0 l/m 0 min 2 min 0 W/m 3,2 km/h (1 Bft) 100,00 %
31.10.2020 21:24 13,5 C 12,2 C 11,1 C 94 % 1014,6 hPa 0,0 l/m 0 min 0 min 0 W/m 6,4 km/h (2 Bft) 100,00 %
31.10.2020 21:26 13,5 C 12,2 C 11,1 C 94 % 1014,7 hPa 0,0 l/m 0 min 0 min 0 W/m 12,9 km/h (3 Bft) 100,00 %
31.10.2020 21:28 13,5 C 12,2 C 11,1 C 94 % 1014,7 hPa 0,2 l/m 0 min 2 min 0 W/m 12,9 km/h (3 Bft) 100,00 %
31.10.2020 21:30 13,6 C 12,2 C 11,1 C 94 % 1014,7 hPa 0,0 l/m 0 min 2 min 0 W/m 19,3 km/h (3 Bft) 97,87 %
31.10.2020 21:32 13,6 C 12,2 C 11,7 C 95 % 1014,7 hPa 0,0 l/m 0 min 0 min 0 W/m 16,1 km/h (3 Bft) 100,00 %
31.10.2020 21:34 13,6 C 12,2 C 11,7 C 95 % 1014,7 hPa 0,0 l/m 0 min 0 min 0 W/m 25,7 km/h (4 Bft) 97,87 %
31.10.2020 21:36 13,7 C 12,2 C 11,7 C 95 % 1014,6 hPa 0,0 l/m 0 min 2 min 0 W/m 22,5 km/h (4 Bft) 100,00 %
31.10.2020 21:38 13,8 C 12,2 C 11,7 C 95 % 1014,6 hPa 0,0 l/m 0 min 2 min 0 W/m 16,1 km/h (3 Bft) 100,00 %
31.10.2020 21:40 13,8 C 12,2 C 11,7 C 95 % 1014,6 hPa 0,0 l/m 0 min 0 min 0 W/m 32,2 km/h (5 Bft) 97,87 %
31.10.2020 21:42 13,8 C 12,2 C 11,7 C 95 % 1014,6 hPa 0,2 l/m 0 min 0 min 0 W/m 19,3 km/h (3 Bft) 100,00 %
31.10.2020 21:44 13,8 C 12,2 C 11,7 C 96 % 1014,6 hPa 0,0 l/m 0 min 0 min 0 W/m 16,1 km/h (3 Bft) 97,87 %
31.10.2020 21:46 13,8 C 12,2 C 11,7 C 96 % 1014,6 hPa 0,0 l/m 0 min 0 min 0 W/m 16,1 km/h (3 Bft) 100,00 %
31.10.2020 21:48 13,9 C 12,2 C 11,7 C 96 % 1014,6 hPa 0,0 l/m 0 min 0 min 0 W/m 19,3 km/h (3 Bft) 100,00 %
31.10.2020 21:50 13,9 C 12,2 C 11,7 C 96 % 1014,5 hPa 0,0 l/m 0 min 0 min 0 W/m 12,9 km/h (3 Bft) 100,00 %
31.10.2020 21:52 13,9 C 12,2 C 11,7 C 96 % 1014,6 hPa 0,0 l/m 0 min 0 min 0 W/m 16,1 km/h (3 Bft) 95,74 %
31.10.2020 21:54 13,9 C 12,2 C 11,7 C 96 % 1014,5 hPa 0,0 l/m 0 min 0 min 0 W/m 16,1 km/h (3 Bft) 100,00 %
31.10.2020 21:56 13,9 C 12,8 C 11,7 C 96 % 1014,5 hPa 0,0 l/m 0 min 0 min 0 W/m 25,7 km/h (4 Bft) 100,00 %
31.10.2020 21:58 13,9 C 12,8 C 11,7 C 96 % 1014,5 hPa 0,0 l/m 0 min 0 min 0 W/m 19,3 km/h (3 Bft) 100,00 %
31.10.2020 22:00 13,9 C 12,8 C 11,7 C 96 % 1014,4 hPa 0,0 l/m 0 min 0 min 0 W/m 22,5 km/h (4 Bft) 97,87 %
31.10.2020 22:02 13,9 C 12,8 C 11,7 C 96 % 1014,4 hPa 0,0 l/m 0 min 0 min 0 W/m 16,1 km/h (3 Bft) 100,00 %
31.10.2020 22:04 13,9 C 12,8 C 11,7 C 96 % 1014,5 hPa 0,0 l/m 0 min 0 min 0 W/m 32,2 km/h (5 Bft) 100,00 %
31.10.2020 22:06 13,9 C 12,8 C 11,7 C 96 % 1014,5 hPa 0,0 l/m 0 min 0 min 0 W/m 25,7 km/h (4 Bft) 97,87 %
31.10.2020 22:08 13,9 C 12,8 C 11,7 C 96 % 1014,5 hPa 0,0 l/m 0 min 0 min 0 W/m 16,1 km/h (3 Bft) 97,87 %
31.10.2020 22:10 13,9 C 12,8 C 11,7 C 97 % 1014,5 hPa 0,0 l/m 0 min 0 min 0 W/m 16,1 km/h (3 Bft) 97,83 %
31.10.2020 22:12 13,9 C 12,8 C 11,7 C 97 % 1014,5 hPa 0,0 l/m 0 min 0 min 0 W/m 12,9 km/h (3 Bft) 95,74 %
31.10.2020 22:14 13,9 C 12,8 C 11,7 C 97 % 1014,5 hPa 0,0 l/m 0 min 0 min 0 W/m 6,4 km/h (2 Bft) 97,87 %
31.10.2020 22:16 13,9 C 12,8 C 11,7 C 97 % 1014,6 hPa 0,0 l/m 0 min 0 min 0 W/m 16,1 km/h (3 Bft) 95,74 %
31.10.2020 22:18 13,9 C 12,8 C 11,7 C 97 % 1014,7 hPa 0,0 l/m 0 min 0 min 0 W/m 19,3 km/h (3 Bft) 95,74 %
31.10.2020 22:20 13,9 C 12,8 C 11,7 C 97 % 1014,6 hPa 0,0 l/m 0 min 0 min 0 W/m 12,9 km/h (3 Bft) 95,74 %
31.10.2020 22:22 13,9 C 12,8 C 11,7 C 97 % 1014,7 hPa 0,0 l/m 0 min 0 min 0 W/m 6,4 km/h (2 Bft) 95,65 %
31.10.2020 22:24 13,9 C 12,8 C 11,7 C 97 % 1014,6 hPa 0,0 l/m 0 min 0 min 0 W/m 12,9 km/h (3 Bft) 93,62 %
31.10.2020 22:26 13,8 C 12,8 C 11,7 C 97 % 1014,7 hPa 0,0 l/m 0 min 0 min 0 W/m 6,4 km/h (2 Bft) 97,87 %
31.10.2020 22:28 13,9 C 12,8 C 11,7 C 97 % 1014,7 hPa 0,0 l/m 0 min 0 min 0 W/m 12,9 km/h (3 Bft) 95,74 %
31.10.2020 22:30 13,9 C 12,8 C 11,7 C 97 % 1014,7 hPa 0,0 l/m 0 min 0 min 0 W/m 12,9 km/h (3 Bft) 95,74 %
31.10.2020 22:32 13,9 C 12,8 C 11,7 C 97 % 1014,7 hPa 0,0 l/m 0 min 0 min 0 W/m 29,0 km/h (5 Bft) 91,43 %
31.10.2020 22:34 13,9 C 12,8 C 11,7 C 97 % 1014,8 hPa 0,0 l/m 0 min 0 min 0 W/m 12,9 km/h (3 Bft) 95,74 %
31.10.2020 22:36 13,8 C 12,8 C 11,7 C 97 % 1014,7 hPa 0,0 l/m 0 min 0 min 0 W/m 19,3 km/h (3 Bft) 91,30 %
31.10.2020 22:38 13,8 C 12,8 C 11,7 C 97 % 1014,8 hPa 0,0 l/m 0 min 0 min 0 W/m 19,3 km/h (3 Bft) 91,49 %
31.10.2020 22:40 13,8 C 12,8 C 11,7 C 97 % 1014,8 hPa 0,0 l/m 0 min 0 min 0 W/m 19,3 km/h (3 Bft) 93,62 %
31.10.2020 22:42 13,8 C 12,8 C 11,7 C 97 % 1014,8 hPa 0,0 l/m 0 min 0 min 0 W/m 16,1 km/h (3 Bft) 93,62 %
31.10.2020 22:44 13,8 C 12,8 C 11,7 C 97 % 1014,8 hPa 0,0 l/m 0 min 0 min 0 W/m 12,9 km/h (3 Bft) 93,62 %
31.10.2020 22:46 13,8 C 12,8 C 11,7 C 97 % 1014,8 hPa 0,0 l/m 0 min 0 min 0 W/m 19,3 km/h (3 Bft) 93,62 %
31.10.2020 22:48 13,8 C 12,8 C 11,7 C 97 % 1014,8 hPa 0,0 l/m 0 min 0 min 0 W/m 6,4 km/h (2 Bft) 93,48 %
31.10.2020 22:50 13,8 C 12,8 C 11,7 C 97 % 1014,8 hPa 0,0 l/m 0 min 0 min 0 W/m 3,2 km/h (1 Bft) 93,62 %
31.10.2020 22:52 13,8 C 12,8 C 11,7 C 97 % 1014,7 hPa 0,0 l/m 0 min 0 min 0 W/m 12,9 km/h (3 Bft) 91,49 %
31.10.2020 22:54 13,8 C 12,8 C 11,7 C 97 % 1014,7 hPa 0,0 l/m 0 min 0 min 0 W/m 9,7 km/h (2 Bft) 93,62 %
31.10.2020 22:56 13,8 C 12,8 C 11,7 C 97 % 1014,7 hPa 0,0 l/m 0 min 0 min 0 W/m 3,2 km/h (1 Bft) 91,49 %
31.10.2020 22:58 13,8 C 12,8 C 11,7 C 97 % 1014,8 hPa 0,0 l/m 0 min 0 min 0 W/m 3,2 km/h (1 Bft) 91,49 %
31.10.2020 23:00 13,8 C 12,8 C 11,7 C 97 % 1014,7 hPa 0,0 l/m 0 min 0 min 0 W/m 6,4 km/h (2 Bft) 93,48 %
31.10.2020 23:02 13,8 C 12,8 C 11,7 C 97 % 1014,8 hPa 0,0 l/m 0 min 0 min 0 W/m 6,4 km/h (2 Bft) 89,36 %
31.10.2020 23:04 13,8 C 12,8 C 11,7 C 97 % 1014,8 hPa 0,0 l/m 0 min 0 min 0 W/m 19,3 km/h (3 Bft) 94,92 %
31.10.2020 23:06 13,8 C 12,8 C 11,7 C 97 % 1014,7 hPa 0,0 l/m 0 min 0 min 0 W/m 16,1 km/h (3 Bft) 93,62 %
31.10.2020 23:08 13,8 C 12,8 C 11,7 C 97 % 1014,7 hPa 0,0 l/m 0 min 0 min 0 W/m 3,2 km/h (1 Bft) 95,65 %
31.10.2020 23:10 13,8 C 12,8 C 11,7 C 97 % 1014,7 hPa 0,0 l/m 0 min 0 min 0 W/m 16,1 km/h (3 Bft) 91,49 %
31.10.2020 23:12 13,8 C 12,8 C 11,7 C 97 % 1014,7 hPa 0,0 l/m 0 min 0 min 0 W/m 3,2 km/h (1 Bft) 97,87 %
31.10.2020 23:14 13,8 C 12,8 C 11,7 C 97 % 1014,7 hPa 0,0 l/m 0 min 0 min 0 W/m 25,7 km/h (4 Bft) 95,74 %
31.10.2020 23:16 13,8 C 12,8 C 11,7 C 97 % 1014,7 hPa 0,0 l/m 0 min 0 min 0 W/m 12,9 km/h (3 Bft) 97,87 %
31.10.2020 23:18 13,8 C 12,8 C 11,7 C 97 % 1014,7 hPa 0,0 l/m 0 min 0 min 0 W/m 19,3 km/h (3 Bft) 97,87 %
31.10.2020 23:20 13,8 C 12,8 C 11,7 C 97 % 1014,7 hPa 0,0 l/m 0 min 0 min 0 W/m 12,9 km/h (3 Bft) 91,43 %
31.10.2020 23:22 13,8 C 12,8 C 11,7 C 97 % 1014,6 hPa 0,0 l/m 0 min 0 min 0 W/m 19,3 km/h (3 Bft) 100,00 %
31.10.2020 23:24 13,9 C 12,8 C 11,7 C 97 % 1014,6 hPa 0,0 l/m 0 min 0 min 0 W/m 16,1 km/h (3 Bft) 97,87 %
31.10.2020 23:26 13,8 C 12,8 C 11,7 C 97 % 1014,6 hPa 0,0 l/m 0 min 0 min 0 W/m 16,1 km/h (3 Bft) 100,00 %
31.10.2020 23:28 13,9 C 12,8 C 11,7 C 97 % 1014,6 hPa 0,0 l/m 0 min 0 min 0 W/m 16,1 km/h (3 Bft) 97,87 %
31.10.2020 23:30 13,9 C 12,8 C 11,7 C 97 % 1014,6 hPa 0,0 l/m 0 min 0 min 0 W/m 22,5 km/h (4 Bft) 100,00 %
31.10.2020 23:32 13,9 C 12,8 C 11,7 C 97 % 1014,6 hPa 0,0 l/m 0 min 0 min 0 W/m 19,3 km/h (3 Bft) 96,23 %
31.10.2020 23:34 13,9 C 12,8 C 11,7 C 97 % 1014,6 hPa 0,0 l/m 0 min 0 min 0 W/m 16,1 km/h (3 Bft) 97,87 %
31.10.2020 23:36 13,9 C 12,8 C 11,7 C 97 % 1014,6 hPa 0,0 l/m 0 min 0 min 0 W/m 19,3 km/h (3 Bft) 100,00 %
31.10.2020 23:38 13,9 C 12,8 C 12,2 C 97 % 1014,7 hPa 0,0 l/m 0 min 0 min 0 W/m 29,0 km/h (5 Bft) 100,00 %
31.10.2020 23:40 13,9 C 12,8 C 12,2 C 97 % 1014,7 hPa 0,0 l/m 0 min 0 min 0 W/m 16,1 km/h (3 Bft) 100,00 %
31.10.2020 23:42 13,9 C 13,3 C 12,2 C 97 % 1014,7 hPa 0,0 l/m 0 min 0 min 0 W/m 25,7 km/h (4 Bft) 100,00 %
31.10.2020 23:44 13,9 C 13,3 C 12,2 C 97 % 1014,6 hPa 0,0 l/m 0 min 0 min 0 W/m 12,9 km/h (3 Bft) 97,87 %
31.10.2020 23:46 13,9 C 12,8 C 12,2 C 97 % 1014,8 hPa 0,0 l/m 0 min 0 min 0 W/m 12,9 km/h (3 Bft) 100,00 %
31.10.2020 23:48 14,0 C 12,8 C 12,2 C 97 % 1014,8 hPa 0,0 l/m 0 min 0 min 0 W/m 3,2 km/h (1 Bft) 100,00 %
31.10.2020 23:50 14,0 C 12,8 C 12,2 C 97 % 1014,7 hPa 0,0 l/m 0 min 2 min 0 W/m 3,2 km/h (1 Bft) 100,00 %
31.10.2020 23:52 14,0 C 12,8 C 12,2 C 97 % 1014,6 hPa 0,0 l/m 0 min 0 min 0 W/m 0,0 km/h (0 Bft) 100,00 %
31.10.2020 23:54 14,0 C 12,8 C 12,2 C 97 % 1014,7 hPa 0,0 l/m 0 min 0 min 0 W/m 0,0 km/h (0 Bft) 100,00 %
31.10.2020 23:56 14,0 C 12,8 C 11,7 C 97 % 1014,7 hPa 0,0 l/m 0 min 0 min 0 W/m 0,0 km/h (0 Bft) 100,00 %
31.10.2020 23:58 14,0 C 12,8 C 12,2 C 97 % 1014,8 hPa 0,0 l/m 0 min 0 min 0 W/m 0,0 km/h (0 Bft) 100,00 %
_ Min-Zeit 08:14 19:58 19:58 14:10 19:30 - - - - 00:28 02:30
Minimum _ 12,8 C 11,1 C 10,0 C 70 % 1013,8 hPa - - - - 0,0 km/h (0 Bft) 73,17 %
_ Max-Zeit 14:20 11:26 12:32 22:10 00:12 19:50 12:08 19:22 12:10 13:38 00:04
Maximum _ 17,8 C 21,1 C 16,7 C 97 % 1023,6 hPa 0,2 l/m 4 min 2 min 434 W/m 38,6 km/h
O-SO (5 Bft)
100,00 %
Durchschnitt _ 14,6 C 14,5 C 12,5 C 86 % 1018,9 hPa #1,4 l/m #5:00 h #1:26 h 212 W/m 11,6 km/h (2 Bft) 97,41 %
© 2020 W. Hausmann